Darstellungsparameter: Aktuell verwendete Einstellungen:
Skalierung der Graphiken ... ?
xyx+y,   Skalierungsfaktor:      Skalierung: Modus: x, Faktor: 1
Darstellungszeitraum ... ?
Vom - - bis: - -   Zeitraum: 03.04.2020 - 01.05.2020
Min/Max/Avg-Anzeige ... ?
Zeige MMA aktuell
Zeige MMA Monat
Zeige MMA alles
Zeige --A aktuell
Zeige --A Monat
Zeige --A alles
Keine MMA-Anzeige
MMA:
Average (ber die Originaldaten)
MMA-Basis: 03.04.2020 - 01.05.2020
Quicknavigation für Darstellung... ?
Tage:      1T, 2T, 3T, 5T -1T -2T -3T -5T +1T +2T +3T +5T
Wochen: 1W, 2W, 3W -1W -2W -3W +1W +2W +3W
Monate: 1M, 3M, 6M -1M -3M -6M +1M +3M +6M
Jahre:    1J, 3J, 5J, 10J -1J -3J -5J -10J +1J +3J +5J +10J
Nutze für die Darstellung ... ?
Originaldaten oder ...
Mittelwerte Minima Maxima auf...
Stundenbasis Tagesbasis Wochenbasis
Monatsbasis Jahresbasis      Datenbasis: Mittelwerte auf Stundenbasis
Darstellen als:
Statistik (Auto) Statistik J:M      Darstellung:
Zur Graphik,    zurück zur Übersicht aller Sensoren.
 
Tabellarische Datenbersicht: ?
 
Sensor: Nr:Datum:Temp:Feuchte:
Aussen-T/F 1 03-04-2020 00:00:00 2.63333 C 38.8333 %
2 03-04-2020 01:00:00 2.48333 C 39.0000 %
3 03-04-2020 02:00:00 2.7 C 38.6667 %
4 03-04-2020 03:00:00 4.03333 C 37.0000 %
5 03-04-2020 04:00:00 4.86667 C 35.5000 %
6 03-04-2020 05:00:00 4.81667 C 35.6667 %
7 03-04-2020 06:00:00 5.21667 C 35.1667 %
8 03-04-2020 07:00:00 5.61667 C 35.0000 %
9 03-04-2020 08:00:00 6.01667 C 35.0000 %
10 03-04-2020 09:00:00 7.63333 C 33.6667 %
11 03-04-2020 10:00:00 9.06667 C 32.0000 %
12 03-04-2020 11:00:00 11.11667 C 28.1667 %
13 03-04-2020 12:00:00 11.25 C 25.5000 %
14 03-04-2020 13:00:00 11.81667 C 23.1667 %
15 03-04-2020 14:00:00 11.71667 C 21.1667 %
16 03-04-2020 15:00:00 12.16667 C 20.0000 %
17 03-04-2020 16:00:00 12.41667 C 20.0000 %
18 03-04-2020 17:00:00 12.18333 C 20.0000 %
19 03-04-2020 18:00:00 11.35 C 20.0000 %
20 03-04-2020 19:00:00 10.4 C 20.0000 %
21 03-04-2020 20:00:00 9.36667 C 20.0000 %
22 03-04-2020 21:00:00 8.8 C 20.0000 %
23 03-04-2020 22:00:00 7.13333 C 23.3333 %
24 03-04-2020 23:00:00 5.65 C 27.3333 %
25 04-04-2020 00:00:00 4.66667 C 29.5000 %
Sensor: Nr:Datum:Temp:Feuchte:
Aussen-T/F 26 04-04-2020 01:00:00 3.68333 C 32.5000 %
27 04-04-2020 02:00:00 1.13333 C 40.5000 %
28 04-04-2020 03:00:00 0.38333 C 42.5000 %
29 04-04-2020 04:00:00 -0.68333 C 43.8333 %
30 04-04-2020 05:00:00 -1.11667 C 45.0000 %
31 04-04-2020 06:00:00 -1.53333 C 45.1667 %
32 04-04-2020 07:00:00 -1.7 C 45.3333 %
33 04-04-2020 08:00:00 -1.3 C 45.8333 %
34 04-04-2020 09:00:00 0.26667 C 44.5000 %
35 04-04-2020 10:00:00 2.73333 C 40.8333 %
36 04-04-2020 11:00:00 7.3 C 32.1667 %
37 04-04-2020 12:00:00 10.51667 C 22.3333 %
38 04-04-2020 13:00:00 11.81667 C 20.0000 %
39 04-04-2020 14:00:00 15.05 C 20.0000 %
40 04-04-2020 15:00:00 18.36667 C 20.0000 %
41 04-04-2020 16:00:00 19.68333 C 20.0000 %
42 04-04-2020 17:00:00 19.43333 C 20.0000 %
43 04-04-2020 18:00:00 15.75 C 20.0000 %
44 04-04-2020 19:00:00 13.55 C 20.0000 %
45 04-04-2020 20:00:00 10.13333 C 22.3333 %
46 04-04-2020 21:00:00 8.41667 C 24.8333 %
47 04-04-2020 22:00:00 5.08333 C 33.0000 %
48 04-04-2020 23:00:00 3.81667 C 35.3333 %
49 05-04-2020 00:00:00 2.68333 C 38.8333 %
50 05-04-2020 01:00:00 2.1 C 40.8333 %
Sensor: Nr:Datum:Temp:Feuchte:
Aussen-T/F 51 05-04-2020 02:00:00 1.31667 C 42.6667 %
52 05-04-2020 03:00:00 0.88333 C 44.0000 %
53 05-04-2020 04:00:00 0.33333 C 45.6667 %
54 05-04-2020 05:00:00 -0.28333 C 46.5000 %
55 05-04-2020 06:00:00 -0.65 C 47.1667 %
56 05-04-2020 07:00:00 -0.6 C 47.8333 %
57 05-04-2020 08:00:00 0.25 C 48.5000 %
58 05-04-2020 09:00:00 2.15 C 46.1667 %
59 05-04-2020 10:00:00 5.76667 C 39.8333 %
60 05-04-2020 11:00:00 12.05 C 26.5000 %
61 05-04-2020 12:00:00 16.76667 C 20.0000 %
62 05-04-2020 13:00:00 17.63333 C 20.0000 %
63 05-04-2020 14:00:00 20.85 C 20.0000 %
64 05-04-2020 15:00:00 25.43333 C 20.0000 %
65 05-04-2020 16:00:00 24.18333 C 20.0000 %
66 05-04-2020 17:00:00 24.66667 C 20.0000 %
67 05-04-2020 18:00:00 19.75 C 20.0000 %
68 05-04-2020 19:00:00 17.33333 C 20.0000 %
69 05-04-2020 20:00:00 13.48333 C 20.0000 %
70 05-04-2020 21:00:00 11.65 C 20.0000 %
71 05-04-2020 22:00:00 9 C 25.1667 %
72 05-04-2020 23:00:00 7.13333 C 29.8333 %
73 06-04-2020 00:00:00 6 C 32.5000 %
74 06-04-2020 01:00:00 4.98333 C 35.5000 %
75 06-04-2020 02:00:00 4.11667 C 37.1667 %
Sensor: Nr:Datum:Temp:Feuchte:
Aussen-T/F 76 06-04-2020 03:00:00 3.43333 C 39.5000 %
77 06-04-2020 04:00:00 2.91667 C 40.3333 %
78 06-04-2020 05:00:00 2.05 C 41.8333 %
79 06-04-2020 06:00:00 1.36667 C 44.6667 %
80 06-04-2020 07:00:00 1.6 C 45.0000 %
81 06-04-2020 08:00:00 2.7 C 43.0000 %
82 06-04-2020 09:00:00 4.18333 C 40.5000 %
83 06-04-2020 10:00:00 7.7 C 36.0000 %
84 06-04-2020 11:00:00 14.55 C 24.3333 %
85 06-04-2020 12:00:00 19.6 C 20.0000 %
86 06-04-2020 13:00:00 20.76667 C 20.0000 %
87 06-04-2020 14:00:00 25.13333 C 20.0000 %
88 06-04-2020 15:00:00 27.05 C 20.0000 %
89 06-04-2020 16:00:00 28.06667 C 20.0000 %
90 06-04-2020 17:00:00 25.95 C 20.0000 %
91 06-04-2020 18:00:00 22.65 C 20.0000 %
92 06-04-2020 19:00:00 20.15 C 20.0000 %
93 06-04-2020 20:00:00 15.43333 C 20.0000 %
94 06-04-2020 21:00:00 12.1 C 21.0000 %
95 06-04-2020 22:00:00 10.25 C 25.5000 %
96 06-04-2020 23:00:00 9.5 C 27.0000 %
97 07-04-2020 00:00:00 9.06667 C 29.1667 %
98 07-04-2020 01:00:00 9.51667 C 29.8333 %
99 07-04-2020 02:00:00 8.13333 C 32.8333 %
100 07-04-2020 03:00:00 7.71667 C 35.1667 %
Sensor: Nr:Datum:Temp:Feuchte:
Aussen-T/F 101 07-04-2020 04:00:00 7.28333 C 36.3333 %
102 07-04-2020 05:00:00 5.9 C 39.5000 %
103 07-04-2020 06:00:00 5.18333 C 41.0000 %
104 07-04-2020 07:00:00 5.13333 C 43.0000 %
105 07-04-2020 08:00:00 6.06667 C 41.0000 %
106 07-04-2020 09:00:00 8.01667 C 39.1667 %
107 07-04-2020 10:00:00 11.15 C 36.0000 %
108 07-04-2020 11:00:00 15.53333 C 29.0000 %
109 07-04-2020 12:00:00 18.95 C 22.5000 %
110 07-04-2020 13:00:00 20.6 C 20.0000 %
111 07-04-2020 14:00:00 23.75 C 20.0000 %
112 07-04-2020 15:00:00 27.63333 C 20.0000 %
113 07-04-2020 16:00:00 26.28333 C 20.0000 %
114 07-04-2020 17:00:00 25.98333 C 20.0000 %
115 07-04-2020 18:00:00 22.88333 C 20.0000 %
116 07-04-2020 19:00:00 19.76667 C 20.0000 %
117 07-04-2020 20:00:00 16.93333 C 20.0000 %
118 07-04-2020 21:00:00 15.58333 C 20.6667 %
119 07-04-2020 22:00:00 13.11667 C 28.5000 %
120 07-04-2020 23:00:00 12.71667 C 30.0000 %
121 08-04-2020 00:00:00 11.4 C 33.5000 %
122 08-04-2020 01:00:00 10.3 C 36.3333 %
123 08-04-2020 02:00:00 8.38333 C 39.6667 %
124 08-04-2020 03:00:00 7.03333 C 42.0000 %
125 08-04-2020 04:00:00 6.43333 C 44.5000 %
Sensor: Nr:Datum:Temp:Feuchte:
Aussen-T/F 126 08-04-2020 05:00:00 5.63333 C 45.0000 %
127 08-04-2020 06:00:00 5.23333 C 46.0000 %
128 08-04-2020 07:00:00 5.3 C 46.0000 %
129 08-04-2020 08:00:00 6.25 C 46.0000 %
130 08-04-2020 09:00:00 7.76667 C 44.8333 %
131 08-04-2020 10:00:00 10.73333 C 40.6667 %
132 08-04-2020 11:00:00 16.01667 C 31.5000 %
133 08-04-2020 12:00:00 21.26667 C 20.5000 %
134 08-04-2020 13:00:00 22.6 C 20.0000 %
135 08-04-2020 14:00:00 26.23333 C 20.0000 %
136 08-04-2020 15:00:00 29.81667 C 20.0000 %
137 08-04-2020 16:00:00 30.46667 C 20.0000 %
138 08-04-2020 17:00:00 29.4 C 20.0000 %
139 08-04-2020 18:00:00 24.78333 C 20.0000 %
140 08-04-2020 19:00:00 21.03333 C 20.0000 %
141 08-04-2020 20:00:00 17.13333 C 20.0000 %
142 08-04-2020 21:00:00 13.88333 C 20.0000 %
143 08-04-2020 22:00:00 12.28333 C 23.8333 %
144 08-04-2020 23:00:00 11.13333 C 27.3333 %
145 09-04-2020 00:00:00 10.45 C 29.6667 %
146 09-04-2020 01:00:00 9.6 C 32.0000 %
147 09-04-2020 02:00:00 8.86667 C 34.6667 %
148 09-04-2020 03:00:00 9.58333 C 33.3333 %
149 09-04-2020 04:00:00 9.6 C 34.0000 %
150 09-04-2020 05:00:00 8.36667 C 36.0000 %
Sensor: Nr:Datum:Temp:Feuchte:
Aussen-T/F 151 09-04-2020 06:00:00 7.21667 C 38.3333 %
152 09-04-2020 07:00:00 7.06667 C 39.5000 %
153 09-04-2020 08:00:00 7.6 C 39.6667 %
154 09-04-2020 09:00:00 9.28333 C 37.6667 %
155 09-04-2020 10:00:00 12.38333 C 33.8333 %
156 09-04-2020 11:00:00 17.33333 C 24.5000 %
157 09-04-2020 12:00:00 21.18333 C 20.0000 %
158 09-04-2020 13:00:00 22.86667 C 20.0000 %
159 09-04-2020 14:00:00 26.03333 C 20.0000 %
160 09-04-2020 15:00:00 29.28333 C 20.0000 %
161 09-04-2020 16:00:00 29.45 C 20.0000 %
162 09-04-2020 17:00:00 28.26667 C 20.0000 %
163 09-04-2020 18:00:00 23.78333 C 20.0000 %
164 09-04-2020 19:00:00 21.45 C 20.0000 %
165 09-04-2020 20:00:00 17.21667 C 20.1667 %
166 09-04-2020 21:00:00 15.98333 C 20.8333 %
167 09-04-2020 22:00:00 14.91667 C 23.3333 %
168 09-04-2020 23:00:00 13.7 C 26.0000 %
169 10-04-2020 00:00:00 11.41667 C 31.8333 %
170 10-04-2020 01:00:00 9.65 C 35.6667 %
171 10-04-2020 02:00:00 8.65 C 37.1667 %
172 10-04-2020 03:00:00 7.58333 C 39.3333 %
173 10-04-2020 04:00:00 6.75 C 40.8333 %
174 10-04-2020 05:00:00 6.13333 C 42.1667 %
175 10-04-2020 06:00:00 5.56667 C 44.0000 %
Sensor: Nr:Datum:Temp:Feuchte:
Aussen-T/F 176 10-04-2020 07:00:00 5.4 C 45.0000 %
177 10-04-2020 08:00:00 6.06667 C 44.6667 %
178 10-04-2020 09:00:00 8.31667 C 41.0000 %
179 10-04-2020 10:00:00 11.36667 C 36.0000 %
180 10-04-2020 11:00:00 15.86667 C 28.0000 %
181 10-04-2020 12:00:00 19.36667 C 20.8333 %
182 10-04-2020 13:00:00 20.45 C 20.0000 %
183 10-04-2020 14:00:00 24.51667 C 20.0000 %
184 10-04-2020 15:00:00 29.9 C 20.0000 %
185 10-04-2020 16:00:00 29.51667 C 20.0000 %
186 10-04-2020 17:00:00 27.95 C 20.0000 %
187 10-04-2020 18:00:00 22.6 C 20.0000 %
188 10-04-2020 19:00:00 20.98333 C 20.0000 %
189 10-04-2020 20:00:00 16.71667 C 20.0000 %
190 10-04-2020 21:00:00 14.43333 C 20.6667 %
191 10-04-2020 22:00:00 14.23333 C 22.3333 %
192 10-04-2020 23:00:00 12 C 26.5000 %
193 11-04-2020 00:00:00 10.35 C 30.6667 %
194 11-04-2020 01:00:00 9.2 C 31.8333 %
195 11-04-2020 02:00:00 8.16667 C 32.1667 %
196 11-04-2020 03:00:00 8.6 C 30.3333 %
197 11-04-2020 04:00:00 7.8 C 29.8333 %
198 11-04-2020 05:00:00 6.45 C 30.6667 %
199 11-04-2020 06:00:00 4.95 C 33.8333 %
200 11-04-2020 07:00:00 4.56667 C 35.0000 %
Sensor: Nr:Datum:Temp:Feuchte:
Aussen-T/F 201 11-04-2020 08:00:00 5.5 C 33.8333 %
202 11-04-2020 09:00:00 7.58333 C 31.0000 %
203 11-04-2020 10:00:00 10.55 C 26.1667 %
204 11-04-2020 11:00:00 14.81667 C 20.0000 %
205 11-04-2020 12:00:00 18.46667 C 20.0000 %
206 11-04-2020 13:00:00 19.71667 C 20.0000 %
207 11-04-2020 14:00:00 23.83333 C 20.0000 %
208 11-04-2020 15:00:00 30.38333 C 20.0000 %
209 11-04-2020 16:00:00 30.91667 C 20.0000 %
210 11-04-2020 17:00:00 28.96667 C 20.0000 %
211 11-04-2020 18:00:00 23.5 C 20.0000 %
212 11-04-2020 19:00:00 21.56667 C 20.0000 %
213 11-04-2020 20:00:00 16.81667 C 20.0000 %
214 11-04-2020 21:00:00 15.21667 C 20.0000 %
215 11-04-2020 22:00:00 14.25 C 20.6667 %
216 11-04-2020 23:00:00 12.43333 C 25.6667 %
217 12-04-2020 00:00:00 11.45 C 28.6667 %
218 12-04-2020 01:00:00 10.66667 C 28.8333 %
219 12-04-2020 02:00:00 10.41667 C 30.6667 %
220 12-04-2020 03:00:00 10.08333 C 31.8333 %
221 12-04-2020 04:00:00 9.1 C 34.1667 %
222 12-04-2020 05:00:00 8.15 C 36.1667 %
223 12-04-2020 06:00:00 7.33333 C 38.3333 %
224 12-04-2020 07:00:00 6.81667 C 39.8333 %
225 12-04-2020 08:00:00 7.66667 C 40.0000 %
Sensor: Nr:Datum:Temp:Feuchte:
Aussen-T/F 226 12-04-2020 09:00:00 9.76667 C 37.5000 %
227 12-04-2020 10:00:00 12.95 C 33.5000 %
228 12-04-2020 11:00:00 17.63333 C 25.6667 %
229 12-04-2020 12:00:00 21.28333 C 20.0000 %
230 12-04-2020 13:00:00 21.86667 C 20.0000 %
231 12-04-2020 14:00:00 25.23333 C 20.0000 %
232 12-04-2020 15:00:00 29.23333 C 20.0000 %
233 12-04-2020 16:00:00 29.16667 C 20.0000 %
234 12-04-2020 17:00:00 29.05 C 20.0000 %
235 12-04-2020 18:00:00 23.58333 C 20.0000 %
236 12-04-2020 19:00:00 21.31667 C 20.0000 %
237 12-04-2020 20:00:00 17.23333 C 20.0000 %
238 12-04-2020 21:00:00 13.78333 C 20.3333 %
239 12-04-2020 22:00:00 12.5 C 22.8333 %
240 12-04-2020 23:00:00 10.83333 C 27.0000 %
241 13-04-2020 00:00:00 10.18333 C 29.8333 %
242 13-04-2020 01:00:00 9.28333 C 31.8333 %
243 13-04-2020 02:00:00 8.95 C 32.8333 %
244 13-04-2020 03:00:00 8.06667 C 34.8333 %
245 13-04-2020 04:00:00 7.11667 C 37.3333 %
246 13-04-2020 05:00:00 7.46667 C 37.5000 %
247 13-04-2020 06:00:00 6.5 C 39.3333 %
248 13-04-2020 07:00:00 7.7 C 38.0000 %
249 13-04-2020 08:00:00 9.61667 C 36.1667 %
250 13-04-2020 09:00:00 11.2 C 36.0000 %
Sensor: Nr:Datum:Temp:Feuchte:
Aussen-T/F 251 13-04-2020 10:00:00 11.21667 C 34.1667 %
252 13-04-2020 11:00:00 11.36667 C 31.8333 %
253 13-04-2020 12:00:00 10.7 C 32.3333 %
254 13-04-2020 13:00:00 9.41667 C 33.8333 %
255 13-04-2020 14:00:00 8.93333 C 35.6667 %
256 13-04-2020 15:00:00 12.46667 C 21.8333 %
257 13-04-2020 16:00:00 14.83333 C 20.0000 %
258 13-04-2020 17:00:00 15.11667 C 20.0000 %
259 13-04-2020 18:00:00 11.98333 C 20.0000 %
260 13-04-2020 19:00:00 10.15 C 20.0000 %
261 13-04-2020 20:00:00 8.36667 C 20.0000 %
262 13-04-2020 21:00:00 7.1 C 20.0000 %
263 13-04-2020 22:00:00 4.96667 C 22.1667 %
264 13-04-2020 23:00:00 3.75 C 27.1667 %
265 14-04-2020 00:00:00 3.26667 C 27.5000 %
266 14-04-2020 01:00:00 2.41667 C 30.0000 %
267 14-04-2020 02:00:00 1.11667 C 35.3333 %
268 14-04-2020 03:00:00 0.98333 C 35.5000 %
269 14-04-2020 04:00:00 0.73333 C 36.0000 %
270 14-04-2020 05:00:00 0.31667 C 38.3333 %
271 14-04-2020 06:00:00 -0.3 C 40.8333 %
272 14-04-2020 07:00:00 1.43333 C 39.1667 %
273 14-04-2020 08:00:00 2.08333 C 38.3333 %
274 14-04-2020 09:00:00 4.75 C 33.5000 %
275 14-04-2020 10:00:00 6.8 C 28.1667 %
Sensor: Nr:Datum:Temp:Feuchte:
Aussen-T/F 276 14-04-2020 11:00:00 8.3 C 20.1667 %
277 14-04-2020 12:00:00 9.16667 C 20.0000 %
278 14-04-2020 13:00:00 10.13333 C 20.0000 %
279 14-04-2020 14:00:00 13.43333 C 20.0000 %
280 14-04-2020 15:00:00 16.33333 C 20.0000 %
281 14-04-2020 16:00:00 15.78333 C 20.0000 %
282 14-04-2020 17:00:00 15.65 C 20.0000 %
283 14-04-2020 18:00:00 12.13333 C 20.0000 %
284 14-04-2020 19:00:00 10.48333 C 20.0000 %
285 14-04-2020 20:00:00 7.73333 C 22.1667 %
286 14-04-2020 21:00:00 6.05 C 26.0000 %
287 14-04-2020 22:00:00 5.05 C 28.8333 %
288 14-04-2020 23:00:00 3.25 C 34.6667 %
289 15-04-2020 00:00:00 1.83333 C 38.5000 %
290 15-04-2020 01:00:00 1.25 C 40.0000 %
291 15-04-2020 02:00:00 0.63333 C 41.8333 %
292 15-04-2020 03:00:00 0.21667 C 43.0000 %
293 15-04-2020 04:00:00 -0.15 C 43.5000 %
294 15-04-2020 05:00:00 -0.45 C 44.6667 %
295 15-04-2020 06:00:00 -0.71667 C 45.0000 %
296 15-04-2020 07:00:00 -0.23333 C 45.1667 %
297 15-04-2020 08:00:00 1.5 C 42.0000 %
298 15-04-2020 09:00:00 3.55 C 37.5000 %
299 15-04-2020 10:00:00 6.48333 C 33.0000 %
300 15-04-2020 11:00:00 10.1 C 25.8333 %
Sensor: Nr:Datum:Temp:Feuchte:
Aussen-T/F 301 15-04-2020 12:00:00 12.91667 C 20.0000 %
302 15-04-2020 13:00:00 13.93333 C 20.0000 %
303 15-04-2020 14:00:00 19.71667 C 20.0000 %
304 15-04-2020 15:00:00 24.25 C 20.0000 %
305 15-04-2020 16:00:00 24.61667 C 20.0000 %
306 15-04-2020 17:00:00 24.63333 C 20.0000 %
307 15-04-2020 18:00:00 19.73333 C 20.0000 %
308 15-04-2020 19:00:00 17.71667 C 20.0000 %
309 15-04-2020 20:00:00 13.13333 C 20.0000 %
310 15-04-2020 21:00:00 10.48333 C 21.8333 %
311 15-04-2020 22:00:00 8.23333 C 28.3333 %
312 15-04-2020 23:00:00 6.75 C 30.8333 %
313 16-04-2020 00:00:00 5.66667 C 34.0000 %
314 16-04-2020 01:00:00 4.88333 C 35.3333 %
315 16-04-2020 02:00:00 4.1 C 37.5000 %
316 16-04-2020 03:00:00 3.31667 C 39.6667 %
317 16-04-2020 04:00:00 2.88333 C 40.8333 %
318 16-04-2020 05:00:00 2.4 C 42.1667 %
319 16-04-2020 06:00:00 1.83333 C 43.8333 %
320 16-04-2020 07:00:00 2.08333 C 44.3333 %
321 16-04-2020 08:00:00 3.06667 C 42.6667 %
322 16-04-2020 09:00:00 5.01667 C 39.6667 %
323 16-04-2020 10:00:00 8.93333 C 33.6667 %
324 16-04-2020 11:00:00 15.71667 C 22.3333 %
325 16-04-2020 12:00:00 19.1 C 20.0000 %
Sensor: Nr:Datum:Temp:Feuchte:
Aussen-T/F 326 16-04-2020 13:00:00 20.95 C 20.0000 %
327 16-04-2020 14:00:00 25.16667 C 20.0000 %
328 16-04-2020 15:00:00 28.46667 C 20.0000 %
329 16-04-2020 16:00:00 27.18333 C 20.0000 %
330 16-04-2020 17:00:00 26.8 C 20.0000 %
331 16-04-2020 18:00:00 24.4 C 20.0000 %
332 16-04-2020 19:00:00 21.98333 C 20.0000 %
333 16-04-2020 20:00:00 19.08333 C 20.0000 %
334 16-04-2020 21:00:00 15.85 C 20.5000 %
335 16-04-2020 22:00:00 13.56667 C 25.1667 %
336 16-04-2020 23:00:00 11.9 C 30.3333 %
337 17-04-2020 00:00:00 10.96667 C 31.8333 %
338 17-04-2020 01:00:00 9.91667 C 34.8333 %
339 17-04-2020 02:00:00 8.98333 C 36.8333 %
340 17-04-2020 03:00:00 7.95 C 39.6667 %
341 17-04-2020 04:00:00 8.06667 C 39.5000 %
342 17-04-2020 05:00:00 6.81667 C 41.6667 %
343 17-04-2020 06:00:00 6.05 C 43.5000 %
344 17-04-2020 07:00:00 6.08333 C 45.0000 %
345 17-04-2020 08:00:00 7.1 C 44.5000 %
346 17-04-2020 09:00:00 9.16667 C 40.8333 %
347 17-04-2020 10:00:00 12.15 C 35.6667 %
348 17-04-2020 11:00:00 16.6 C 28.1667 %
349 17-04-2020 12:00:00 19.23333 C 21.8333 %
350 17-04-2020 13:00:00 20.75 C 20.0000 %
Sensor: Nr:Datum:Temp:Feuchte:
Aussen-T/F 351 17-04-2020 14:00:00 25.65 C 20.0000 %
352 17-04-2020 15:00:00 29.3 C 20.0000 %
353 17-04-2020 16:00:00 28.68333 C 20.0000 %
354 17-04-2020 17:00:00 29.18333 C 20.0000 %
355 17-04-2020 18:00:00 25.36667 C 20.0000 %
356 17-04-2020 19:00:00 22.56667 C 20.0000 %
357 17-04-2020 20:00:00 18.76667 C 21.0000 %
358 17-04-2020 21:00:00 17.4 C 24.3333 %
359 17-04-2020 22:00:00 15.53333 C 26.6667 %
360 17-04-2020 23:00:00 14.05 C 30.1667 %
361 18-04-2020 00:00:00 12.51667 C 32.6667 %
362 18-04-2020 01:00:00 11.31667 C 34.8333 %
363 18-04-2020 02:00:00 10.33333 C 36.8333 %
364 18-04-2020 03:00:00 9.23333 C 39.1667 %
365 18-04-2020 04:00:00 8.88333 C 40.5000 %
366 18-04-2020 05:00:00 8.51667 C 40.8333 %
367 18-04-2020 06:00:00 8.43333 C 41.0000 %
368 18-04-2020 07:00:00 9.25 C 41.5000 %
369 18-04-2020 08:00:00 10.28333 C 40.0000 %
370 18-04-2020 09:00:00 12.98333 C 35.3333 %
371 18-04-2020 10:00:00 16.16667 C 30.0000 %
372 18-04-2020 11:00:00 18.43333 C 26.6667 %
373 18-04-2020 12:00:00 19.71667 C 24.8333 %
374 18-04-2020 13:00:00 21.65 C 20.8333 %
375 18-04-2020 14:00:00 22.18333 C 20.0000 %
Sensor: Nr:Datum:Temp:Feuchte:
Aussen-T/F 376 18-04-2020 15:00:00 25.53333 C 20.0000 %
377 18-04-2020 16:00:00 20.63333 C 22.5000 %
378 18-04-2020 17:00:00 18.2 C 30.0000 %
379 18-04-2020 18:00:00 17.5 C 32.1667 %
380 18-04-2020 19:00:00 17.86667 C 29.8333 %
381 18-04-2020 20:00:00 15.66667 C 31.8333 %
382 18-04-2020 21:00:00 14.88333 C 33.6667 %
383 18-04-2020 22:00:00 13.6 C 35.6667 %
384 18-04-2020 23:00:00 11.8 C 39.3333 %
385 19-04-2020 00:00:00 10.26667 C 43.3333 %
386 19-04-2020 01:00:00 9.71667 C 44.8333 %
387 19-04-2020 02:00:00 9.76667 C 44.8333 %
388 19-04-2020 03:00:00 9.05 C 44.8333 %
389 19-04-2020 04:00:00 9.25 C 45.0000 %
390 19-04-2020 05:00:00 9.68333 C 45.0000 %
391 19-04-2020 06:00:00 10.13333 C 44.1667 %
392 19-04-2020 07:00:00 10.5 C 43.5000 %
393 19-04-2020 08:00:00 11.85 C 40.3333 %
394 19-04-2020 09:00:00 13.3 C 36.3333 %
395 19-04-2020 10:00:00 15.15 C 33.1667 %
396 19-04-2020 11:00:00 14.55 C 33.5000 %
397 19-04-2020 12:00:00 15.68333 C 31.6667 %
398 19-04-2020 13:00:00 18.15 C 26.6667 %
399 19-04-2020 14:00:00 18 C 25.5000 %
400 19-04-2020 15:00:00 17.26667 C 25.1667 %
Sensor: Nr:Datum:Temp:Feuchte:
Aussen-T/F 401 19-04-2020 16:00:00 20.33333 C 20.3333 %
402 19-04-2020 17:00:00 18.75 C 20.0000 %
403 19-04-2020 18:00:00 17.15 C 20.0000 %
404 19-04-2020 19:00:00 16.08333 C 20.0000 %
405 19-04-2020 20:00:00 13.25 C 24.0000 %
406 19-04-2020 21:00:00 11.6 C 26.6667 %
407 19-04-2020 22:00:00 10.78333 C 26.0000 %
408 19-04-2020 23:00:00 10.3 C 24.5000 %
409 20-04-2020 00:00:00 9.76667 C 24.0000 %
410 20-04-2020 01:00:00 9.23333 C 22.3333 %
411 20-04-2020 02:00:00 7.56667 C 26.6667 %
412 20-04-2020 03:00:00 6.85 C 28.1667 %
413 20-04-2020 04:00:00 6.41667 C 28.3333 %
414 20-04-2020 05:00:00 6.3 C 29.1667 %
415 20-04-2020 06:00:00 5.98333 C 30.0000 %
416 20-04-2020 07:00:00 6.58333 C 29.0000 %
417 20-04-2020 08:00:00 7.78333 C 26.6667 %
418 20-04-2020 09:00:00 8.78333 C 26.0000 %
419 20-04-2020 10:00:00 11.65 C 21.3333 %
420 20-04-2020 11:00:00 14.43333 C 20.0000 %
421 20-04-2020 12:00:00 15.13333 C 20.0000 %
422 20-04-2020 13:00:00 16.03333 C 20.0000 %
423 20-04-2020 14:00:00 19.95 C 20.0000 %
424 20-04-2020 15:00:00 23.01667 C 20.0000 %
425 20-04-2020 16:00:00 23.45 C 20.0000 %
Sensor: Nr:Datum:Temp:Feuchte:
Aussen-T/F 426 20-04-2020 17:00:00 21.88333 C 20.0000 %
427 20-04-2020 18:00:00 18.58333 C 20.0000 %
428 20-04-2020 19:00:00 17.08333 C 20.0000 %
429 20-04-2020 20:00:00 14.88333 C 20.0000 %
430 20-04-2020 21:00:00 12.66667 C 20.0000 %
431 20-04-2020 22:00:00 11.9 C 20.0000 %
432 20-04-2020 23:00:00 11.28333 C 20.0000 %
433 21-04-2020 00:00:00 10.33333 C 20.0000 %
434 21-04-2020 01:00:00 8.96667 C 20.0000 %
435 21-04-2020 02:00:00 9.08333 C 20.0000 %
436 21-04-2020 03:00:00 8.93333 C 20.0000 %
437 21-04-2020 04:00:00 7.66667 C 22.6667 %
438 21-04-2020 05:00:00 7.06667 C 25.5000 %
439 21-04-2020 06:00:00 6.51667 C 27.6667 %
440 21-04-2020 07:00:00 6.55 C 29.1667 %
441 21-04-2020 08:00:00 7.61667 C 26.8333 %
442 21-04-2020 09:00:00 9.9 C 21.5000 %
443 21-04-2020 10:00:00 12.38333 C 20.0000 %
444 21-04-2020 11:00:00 14.78333 C 20.0000 %
445 21-04-2020 12:00:00 16.3 C 20.0000 %
446 21-04-2020 13:00:00 17.46667 C 20.0000 %
447 21-04-2020 14:00:00 21.25 C 20.0000 %
448 21-04-2020 15:00:00 23.5 C 20.0000 %
449 21-04-2020 16:00:00 23.2 C 20.0000 %
450 21-04-2020 17:00:00 23.05 C 20.0000 %
Sensor: Nr:Datum:Temp:Feuchte:
Aussen-T/F 451 21-04-2020 18:00:00 20.46667 C 20.0000 %
452 21-04-2020 19:00:00 19 C 20.0000 %
453 21-04-2020 20:00:00 16.41667 C 20.0000 %
454 21-04-2020 21:00:00 13.8 C 20.0000 %
455 21-04-2020 22:00:00 12.66667 C 20.0000 %
456 21-04-2020 23:00:00 11.51667 C 20.0000 %
457 22-04-2020 00:00:00 11.01667 C 20.0000 %
458 22-04-2020 01:00:00 10.08333 C 22.5000 %
459 22-04-2020 02:00:00 9.58333 C 24.6667 %
460 22-04-2020 03:00:00 8.75 C 26.1667 %
461 22-04-2020 04:00:00 7.98333 C 27.1667 %
462 22-04-2020 05:00:00 7.1 C 29.0000 %
463 22-04-2020 06:00:00 5.85 C 32.6667 %
464 22-04-2020 07:00:00 5.66667 C 35.0000 %
465 22-04-2020 08:00:00 7.41667 C 32.3333 %
466 22-04-2020 09:00:00 10.16667 C 27.0000 %
467 22-04-2020 10:00:00 13.28333 C 20.6667 %
468 22-04-2020 11:00:00 16.31667 C 20.0000 %
469 22-04-2020 12:00:00 17.76667 C 20.0000 %
470 22-04-2020 13:00:00 19.05 C 20.0000 %
471 22-04-2020 14:00:00 23.26667 C 20.0000 %
472 22-04-2020 15:00:00 26.16667 C 20.0000 %
473 22-04-2020 16:00:00 26.41667 C 20.0000 %
474 22-04-2020 17:00:00 25.2 C 20.0000 %
475 22-04-2020 18:00:00 22.1 C 20.0000 %
Sensor: Nr:Datum:Temp:Feuchte:
Aussen-T/F 476 22-04-2020 19:00:00 20.63333 C 20.0000 %
477 22-04-2020 20:00:00 17.2 C 20.0000 %
478 22-04-2020 21:00:00 14.7 C 20.0000 %
479 22-04-2020 22:00:00 13.71667 C 20.0000 %
480 22-04-2020 23:00:00 13.21667 C 20.0000 %
481 23-04-2020 00:00:00 12.35 C 20.0000 %
482 23-04-2020 01:00:00 11.4 C 20.3333 %
483 23-04-2020 02:00:00 9.63333 C 25.5000 %
484 23-04-2020 03:00:00 9.26667 C 26.0000 %
485 23-04-2020 04:00:00 7.58333 C 30.5000 %
486 23-04-2020 05:00:00 6.05 C 34.8333 %
487 23-04-2020 06:00:00 5.41667 C 36.0000 %
488 23-04-2020 07:00:00 5.25 C 38.0000 %
489 23-04-2020 08:00:00 6.06667 C 38.5000 %
490 23-04-2020 09:00:00 8.86667 C 35.0000 %
491 23-04-2020 10:00:00 12.33333 C 28.6667 %
492 23-04-2020 11:00:00 17.08333 C 20.0000 %
493 23-04-2020 12:00:00 18.38333 C 20.0000 %
494 23-04-2020 13:00:00 19.46667 C 20.0000 %
495 23-04-2020 14:00:00 24.7 C 20.0000 %
496 23-04-2020 15:00:00 29.7 C 20.0000 %
497 23-04-2020 16:00:00 28.45 C 20.0000 %
498 23-04-2020 17:00:00 29.1 C 20.0000 %
499 23-04-2020 18:00:00 24.33333 C 20.0000 %
500 23-04-2020 19:00:00 21.11667 C 20.0000 %
Sensor: Nr:Datum:Temp:Feuchte:
Aussen-T/F 501 23-04-2020 20:00:00 16.66667 C 20.0000 %
502 23-04-2020 21:00:00 13.35 C 20.0000 %
503 23-04-2020 22:00:00 11.33333 C 25.1667 %
504 23-04-2020 23:00:00 9.78333 C 28.5000 %
505 24-04-2020 00:00:00 8.83333 C 30.6667 %
506 24-04-2020 01:00:00 8.1 C 32.6667 %
507 24-04-2020 02:00:00 7.1 C 34.8333 %
508 24-04-2020 03:00:00 6.48333 C 36.3333 %
509 24-04-2020 04:00:00 6.11667 C 37.5000 %
510 24-04-2020 05:00:00 6.11667 C 38.1667 %
511 24-04-2020 06:00:00 6.03333 C 38.6667 %
512 24-04-2020 07:00:00 6.4 C 38.8333 %
513 24-04-2020 08:00:00 8.46667 C 36.1667 %
514 24-04-2020 09:00:00 11.61667 C 31.1667 %
515 24-04-2020 10:00:00 13.95 C 28.0000 %
516 24-04-2020 11:00:00 16.38333 C 24.6667 %
517 24-04-2020 12:00:00 18.46667 C 21.0000 %
518 24-04-2020 13:00:00 20.55 C 20.0000 %
519 24-04-2020 14:00:00 24.98333 C 20.0000 %
520 24-04-2020 15:00:00 28.5 C 20.0000 %
521 24-04-2020 16:00:00 27.61667 C 20.0000 %
522 24-04-2020 17:00:00 25.93333 C 20.0000 %
523 24-04-2020 18:00:00 22.08333 C 20.0000 %
524 24-04-2020 19:00:00 19.91667 C 20.0000 %
525 24-04-2020 20:00:00 17.56667 C 20.0000 %
Sensor: Nr:Datum:Temp:Feuchte:
Aussen-T/F 526 24-04-2020 21:00:00 15.26667 C 20.0000 %
527 24-04-2020 22:00:00 14.05 C 20.0000 %
528 24-04-2020 23:00:00 12.83333 C 20.0000 %
529 25-04-2020 00:00:00 12.28333 C 20.0000 %
530 25-04-2020 01:00:00 11.31667 C 22.8333 %
531 25-04-2020 02:00:00 9.85 C 28.1667 %
532 25-04-2020 03:00:00 9.63333 C 29.0000 %
533 25-04-2020 04:00:00 8.71667 C 31.0000 %
534 25-04-2020 05:00:00 7.41667 C 36.1667 %
535 25-04-2020 06:00:00 8.25 C 35.6667 %
536 25-04-2020 07:00:00 8.36667 C 35.0000 %
537 25-04-2020 08:00:00 8.66667 C 33.6667 %
538 25-04-2020 09:00:00 9.83333 C 30.8333 %
539 25-04-2020 10:00:00 10.9 C 27.6667 %
540 25-04-2020 11:00:00 11.65 C 24.8333 %
541 25-04-2020 12:00:00 11.63333 C 24.8333 %
542 25-04-2020 13:00:00 13.01667 C 21.3333 %
543 25-04-2020 14:00:00 17.98333 C 20.0000 %
544 25-04-2020 15:00:00 24.83333 C 20.0000 %
545 25-04-2020 16:00:00 23.93333 C 20.0000 %
546 25-04-2020 17:00:00 25.05 C 20.0000 %
547 25-04-2020 18:00:00 18.51667 C 20.0000 %
548 25-04-2020 19:00:00 16.63333 C 20.0000 %
549 25-04-2020 20:00:00 13.81667 C 20.0000 %
550 25-04-2020 21:00:00 11.46667 C 21.0000 %
Sensor: Nr:Datum:Temp:Feuchte:
Aussen-T/F 551 25-04-2020 22:00:00 10.3 C 24.6667 %
552 25-04-2020 23:00:00 8.8 C 29.1667 %
553 26-04-2020 00:00:00 6.48333 C 35.1667 %
554 26-04-2020 01:00:00 5.38333 C 38.0000 %
555 26-04-2020 02:00:00 4.66667 C 40.3333 %
556 26-04-2020 03:00:00 4.03333 C 41.5000 %
557 26-04-2020 04:00:00 3.41667 C 43.5000 %
558 26-04-2020 05:00:00 2.76667 C 45.1667 %
559 26-04-2020 06:00:00 2.35 C 46.0000 %
560 26-04-2020 07:00:00 2.68333 C 46.5000 %
561 26-04-2020 08:00:00 3.83333 C 45.5000 %
562 26-04-2020 09:00:00 6.08333 C 42.5000 %
563 26-04-2020 10:00:00 9.43333 C 36.1667 %
564 26-04-2020 11:00:00 13.76667 C 26.6667 %
565 26-04-2020 12:00:00 15.61667 C 20.1667 %
566 26-04-2020 13:00:00 16.81667 C 20.0000 %
567 26-04-2020 14:00:00 21.88333 C 20.0000 %
568 26-04-2020 15:00:00 28.51667 C 20.0000 %
569 26-04-2020 16:00:00 28.56667 C 20.0000 %
570 26-04-2020 17:00:00 27.73333 C 20.0000 %
571 26-04-2020 18:00:00 22.5 C 20.0000 %
572 26-04-2020 19:00:00 19.6 C 20.0000 %
573 26-04-2020 20:00:00 15.45 C 20.0000 %
574 26-04-2020 21:00:00 12.58333 C 20.5000 %
575 26-04-2020 22:00:00 10.48333 C 26.6667 %
Sensor: Nr:Datum:Temp:Feuchte:
Aussen-T/F 576 26-04-2020 23:00:00 8.85 C 29.8333 %
577 27-04-2020 00:00:00 7.73333 C 31.8333 %
578 27-04-2020 01:00:00 6.81667 C 34.6667 %
579 27-04-2020 02:00:00 5.96667 C 36.6667 %
580 27-04-2020 03:00:00 5.63333 C 38.3333 %
581 27-04-2020 04:00:00 4.43333 C 40.3333 %
582 27-04-2020 05:00:00 3.78333 C 42.8333 %
583 27-04-2020 06:00:00 3.65 C 44.3333 %
584 27-04-2020 07:00:00 4.15 C 44.0000 %
585 27-04-2020 08:00:00 5.33333 C 41.5000 %
586 27-04-2020 09:00:00 7.4 C 39.0000 %
587 27-04-2020 10:00:00 11.2 C 34.1667 %
588 27-04-2020 11:00:00 16.88333 C 21.1667 %
589 27-04-2020 12:00:00 18.6 C 20.0000 %
590 27-04-2020 13:00:00 19.91667 C 20.0000 %
591 27-04-2020 14:00:00 25.01667 C 20.0000 %
592 27-04-2020 15:00:00 27.9 C 20.0000 %
593 27-04-2020 16:00:00 24.06667 C 20.0000 %
594 27-04-2020 17:00:00 21.88333 C 20.0000 %
595 27-04-2020 18:00:00 22.48333 C 20.0000 %
596 27-04-2020 19:00:00 18.9 C 20.0000 %
597 27-04-2020 20:00:00 15.96667 C 20.5000 %
598 27-04-2020 21:00:00 14.26667 C 24.3333 %
599 27-04-2020 22:00:00 12.66667 C 28.6667 %
600 27-04-2020 23:00:00 11.46667 C 31.5000 %
Sensor: Nr:Datum:Temp:Feuchte:
Aussen-T/F 601 28-04-2020 00:00:00 9.96667 C 35.5000 %
602 28-04-2020 01:00:00 9.16667 C 37.0000 %
603 28-04-2020 02:00:00 8.5 C 39.3333 %
604 28-04-2020 03:00:00 8.2 C 40.1667 %
605 28-04-2020 04:00:00 7.53333 C 41.6667 %
606 28-04-2020 05:00:00 7.75 C 41.1667 %
607 28-04-2020 06:00:00 7.56667 C 42.0000 %
608 28-04-2020 07:00:00 9.26667 C 39.5000 %
609 28-04-2020 08:00:00 9.86667 C 40.6667 %
610 28-04-2020 09:00:00 11.56667 C 38.8333 %
611 28-04-2020 10:00:00 13.46667 C 36.1667 %
612 28-04-2020 11:00:00 13.96667 C 37.6667 %
613 28-04-2020 12:00:00 14.98333 C 37.6667 %
614 28-04-2020 13:00:00 14.73333 C 39.1667 %
615 28-04-2020 14:00:00 17.41667 C 33.3333 %
616 28-04-2020 15:00:00 16.53333 C 33.8333 %
617 28-04-2020 16:00:00 18.11667 C 29.8333 %
618 28-04-2020 17:00:00 17.26667 C 29.5000 %
619 28-04-2020 18:00:00 17.58333 C 28.3333 %
620 28-04-2020 19:00:00 16.31667 C 30.0000 %
621 28-04-2020 20:00:00 13.71667 C 36.0000 %
622 28-04-2020 21:00:00 13.85 C 35.3333 %
623 28-04-2020 22:00:00 13 C 36.3333 %
624 28-04-2020 23:00:00 12.58333 C 38.3333 %
625 29-04-2020 00:00:00 11.88333 C 39.5000 %
Sensor: Nr:Datum:Temp:Feuchte:
Aussen-T/F 626 29-04-2020 01:00:00 11.53333 C 41.5000 %
627 29-04-2020 02:00:00 12.05 C 38.5000 %
628 29-04-2020 03:00:00 11.78333 C 37.8333 %
629 29-04-2020 04:00:00 11.73333 C 38.8333 %
630 29-04-2020 05:00:00 11.51667 C 39.1667 %
631 29-04-2020 06:00:00 11.3 C 39.3333 %
632 29-04-2020 07:00:00 12.15 C 37.3333 %
633 29-04-2020 08:00:00 12.76667 C 35.8333 %
634 29-04-2020 09:00:00 13.56667 C 33.5000 %
635 29-04-2020 10:00:00 14.95 C 29.5000 %
636 29-04-2020 11:00:00 16.51667 C 26.6667 %
637 29-04-2020 12:00:00 16.3 C 25.3333 %
638 29-04-2020 13:00:00 16.9 C 25.0000 %
639 29-04-2020 14:00:00 17.45 C 24.3333 %
640 29-04-2020 15:00:00 20.56667 C 20.0000 %
641 29-04-2020 16:00:00 18.3 C 20.8333 %
642 29-04-2020 17:00:00 19.21667 C 21.6667 %
643 29-04-2020 18:00:00 18.11667 C 21.5000 %
644 29-04-2020 19:00:00 16.98333 C 24.0000 %
645 29-04-2020 20:00:00 14.75 C 27.6667 %
646 29-04-2020 21:00:00 13.26667 C 31.6667 %
647 29-04-2020 22:00:00 13.23333 C 32.3333 %
648 29-04-2020 23:00:00 12.98333 C 34.3333 %
649 30-04-2020 00:00:00 13.18333 C 33.3333 %
650 30-04-2020 01:00:00 13.21667 C 33.0000 %
Sensor: Nr:Datum:Temp:Feuchte:
Aussen-T/F 651 30-04-2020 02:00:00 11.76667 C 38.0000 %
652 30-04-2020 03:00:00 11.11667 C 39.1667 %
653 30-04-2020 04:00:00 10.68333 C 43.0000 %
654 30-04-2020 05:00:00 10.76667 C 45.0000 %
655 30-04-2020 06:00:00 10.73333 C 45.0000 %
656 30-04-2020 07:00:00 10.23333 C 42.5000 %
657 30-04-2020 08:00:00 10.38333 C 41.1667 %
658 30-04-2020 09:00:00 12.13333 C 36.6667 %
659 30-04-2020 10:00:00 13.86667 C 32.8333 %
660 30-04-2020 11:00:00 14.16667 C 30.3333 %
661 30-04-2020 12:00:00 14.53333 C 28.8333 %
662 30-04-2020 13:00:00 14.91667 C 26.5000 %
663 30-04-2020 14:00:00 17.61667 C 20.8333 %
664 30-04-2020 15:00:00 17.38333 C 20.1667 %
665 30-04-2020 16:00:00 16.3 C 20.5000 %
666 30-04-2020 17:00:00 12.01667 C 35.6667 %
667 30-04-2020 18:00:00 10.2 C 41.6667 %
668 30-04-2020 19:00:00 9.85 C 41.3333 %
669 30-04-2020 20:00:00 9.15 C 44.8333 %
670 30-04-2020 21:00:00 8.9 C 45.1667 %
671 30-04-2020 22:00:00 8.58333 C 45.0000 %
672 30-04-2020 23:00:00 8.63333 C 44.5000 %
673 01-05-2020 00:00:00 8.35 C 44.0000 %
674 01-05-2020 01:00:00 8.25 C 43.0000 %
675 01-05-2020 02:00:00 7.81667 C 42.8333 %
Sensor: Nr:Datum:Temp:Feuchte:
Aussen-T/F 676 01-05-2020 03:00:00 7.71667 C 43.5000 %
677 01-05-2020 04:00:00 7.28333 C 45.6667 %
678 01-05-2020 05:00:00 8.11667 C 43.8333 %
679 01-05-2020 06:00:00 7.58333 C 43.8333 %
680 01-05-2020 07:00:00 7.63333 C 45.0000 %
681 01-05-2020 08:00:00 8.55 C 42.3333 %
682 01-05-2020 09:00:00 10.15 C 39.8333 %
683 01-05-2020 10:00:00 11.11667 C 36.5000 %
684 01-05-2020 11:00:00 12.83333 C 32.0000 %
685 01-05-2020 12:00:00 11.38333 C 35.3333 %
686 01-05-2020 13:00:00 11.16667 C 36.3333 %
687 01-05-2020 14:00:00 15.18333 C 26.8333 %
688 01-05-2020 15:00:00 15.98333 C 24.3333 %
689 01-05-2020 16:00:00 17.41667 C 22.6667 %
690 01-05-2020 17:00:00 15.23333 C 27.0000 %
691 01-05-2020 18:00:00 12.76667 C 34.1667 %
692 01-05-2020 19:00:00 11.91667 C 35.0000 %
693 01-05-2020 20:00:00 11 C 35.1667 %
694 01-05-2020 21:00:00 9.8 C 38.0000 %
695 01-05-2020 22:00:00 9.21667 C 39.5000 %
696 01-05-2020 23:00:00 9.38333 C 39.8333 %
Sensor: Nr:Datum:Temp:Feuchte:
G-T/H 1 03-04-2020 00:00:00 8.7 C 67.0000 %
2 03-04-2020 01:00:00 8.73333 C 66.8333 %
3 03-04-2020 02:00:00 8.7 C 66.0000 %
4 03-04-2020 03:00:00 8.7 C 66.3333 %
5 03-04-2020 04:00:00 8.7 C 67.0000 %
6 03-04-2020 05:00:00 8.7 C 67.0000 %
7 03-04-2020 06:00:00 8.66667 C 67.0000 %
8 03-04-2020 07:00:00 8.6 C 67.0000 %
9 03-04-2020 08:00:00 8.63333 C 67.0000 %
10 03-04-2020 09:00:00 8.7 C 67.0000 %
11 03-04-2020 10:00:00 8.7 C 68.0000 %
12 03-04-2020 11:00:00 8.73333 C 68.0000 %
13 03-04-2020 12:00:00 8.85 C 68.0000 %
14 03-04-2020 13:00:00 9.15 C 66.1667 %
15 03-04-2020 14:00:00 9.51667 C 61.6667 %
16 03-04-2020 15:00:00 9.71667 C 59.3333 %
17 03-04-2020 16:00:00 10 C 56.8333 %
18 03-04-2020 17:00:00 10.13333 C 54.3333 %
19 03-04-2020 18:00:00 10.15 C 53.1667 %
20 03-04-2020 19:00:00 10.11667 C 53.5000 %
21 03-04-2020 20:00:00 10.03333 C 51.3333 %
22 03-04-2020 21:00:00 9.86667 C 48.8333 %
23 03-04-2020 22:00:00 9.43333 C 47.1667 %
24 03-04-2020 23:00:00 9.01667 C 47.0000 %
25 04-04-2020 00:00:00 8.4 C 46.5000 %
Sensor: Nr:Datum:Temp:Feuchte:
G-T/H 26 04-04-2020 01:00:00 7.76667 C 47.1667 %
27 04-04-2020 02:00:00 6.76667 C 50.0000 %
28 04-04-2020 03:00:00 6 C 52.0000 %
29 04-04-2020 04:00:00 5.33333 C 53.0000 %
30 04-04-2020 05:00:00 4.76667 C 54.8333 %
31 04-04-2020 06:00:00 4.56667 C 55.0000 %
32 04-04-2020 07:00:00 4.35 C 55.0000 %
33 04-04-2020 08:00:00 4.3 C 55.6667 %
34 04-04-2020 09:00:00 4.45 C 57.3333 %
35 04-04-2020 10:00:00 5 C 58.8333 %
36 04-04-2020 11:00:00 6.16667 C 58.3333 %
37 04-04-2020 12:00:00 7.18333 C 56.8333 %
38 04-04-2020 13:00:00 7.85 C 54.5000 %
39 04-04-2020 14:00:00 8.08333 C 53.0000 %
40 04-04-2020 15:00:00 8.06667 C 55.0000 %
41 04-04-2020 16:00:00 8.21667 C 56.3333 %
42 04-04-2020 17:00:00 8.41667 C 57.5000 %
43 04-04-2020 18:00:00 8.7 C 57.5000 %
44 04-04-2020 19:00:00 8.83333 C 58.3333 %
45 04-04-2020 20:00:00 8.93333 C 59.0000 %
46 04-04-2020 21:00:00 9 C 59.0000 %
47 04-04-2020 22:00:00 9.06667 C 59.6667 %
48 04-04-2020 23:00:00 9.1 C 60.0000 %
49 05-04-2020 00:00:00 9.13333 C 60.0000 %
50 05-04-2020 01:00:00 9.15 C 60.0000 %
Sensor: Nr:Datum:Temp:Feuchte:
G-T/H 51 05-04-2020 02:00:00 9.1 C 60.0000 %
52 05-04-2020 03:00:00 9.1 C 60.3333 %
53 05-04-2020 04:00:00 9.01667 C 61.0000 %
54 05-04-2020 05:00:00 8.98333 C 60.8333 %
55 05-04-2020 06:00:00 8.9 C 61.0000 %
56 05-04-2020 07:00:00 8.83333 C 61.0000 %
57 05-04-2020 08:00:00 8.8 C 61.0000 %
58 05-04-2020 09:00:00 8.76667 C 61.0000 %
59 05-04-2020 10:00:00 8.78333 C 62.0000 %
60 05-04-2020 11:00:00 8.73333 C 62.0000 %
61 05-04-2020 12:00:00 8.78333 C 62.0000 %
62 05-04-2020 13:00:00 8.85 C 62.0000 %
63 05-04-2020 14:00:00 9 C 62.0000 %
64 05-04-2020 15:00:00 9.16667 C 62.0000 %
65 05-04-2020 16:00:00 9.31667 C 62.0000 %
66 05-04-2020 17:00:00 9.48333 C 62.5000 %
67 05-04-2020 18:00:00 9.63333 C 63.0000 %
68 05-04-2020 19:00:00 9.78333 C 63.0000 %
69 05-04-2020 20:00:00 9.86667 C 64.0000 %
70 05-04-2020 21:00:00 9.98333 C 63.1667 %
71 05-04-2020 22:00:00 10 C 63.5000 %
72 05-04-2020 23:00:00 10.1 C 64.0000 %
73 06-04-2020 00:00:00 10.1 C 64.0000 %
74 06-04-2020 01:00:00 10.1 C 64.0000 %
75 06-04-2020 02:00:00 10.1 C 64.0000 %
Sensor: Nr:Datum:Temp:Feuchte:
G-T/H 76 06-04-2020 03:00:00 10.1 C 64.0000 %
77 06-04-2020 04:00:00 10.08333 C 63.6667 %
78 06-04-2020 05:00:00 10 C 62.5000 %
79 06-04-2020 06:00:00 9.93333 C 62.6667 %
80 06-04-2020 07:00:00 9.85 C 63.0000 %
81 06-04-2020 08:00:00 9.75 C 63.0000 %
82 06-04-2020 09:00:00 9.7 C 63.5000 %
83 06-04-2020 10:00:00 9.7 C 64.0000 %
84 06-04-2020 11:00:00 9.7 C 64.0000 %
85 06-04-2020 12:00:00 9.71667 C 64.0000 %
86 06-04-2020 13:00:00 9.83333 C 64.0000 %
87 06-04-2020 14:00:00 10 C 63.6667 %
88 06-04-2020 15:00:00 10.15 C 64.0000 %
89 06-04-2020 16:00:00 10.31667 C 64.0000 %
90 06-04-2020 17:00:00 10.46667 C 64.0000 %
91 06-04-2020 18:00:00 10.65 C 64.0000 %
92 06-04-2020 19:00:00 10.81667 C 64.0000 %
93 06-04-2020 20:00:00 10.91667 C 64.0000 %
94 06-04-2020 21:00:00 11 C 64.0000 %
95 06-04-2020 22:00:00 11.01667 C 64.0000 %
96 06-04-2020 23:00:00 11.1 C 64.1667 %
97 07-04-2020 00:00:00 11.1 C 65.0000 %
98 07-04-2020 01:00:00 11.15 C 65.0000 %
99 07-04-2020 02:00:00 11.18333 C 65.0000 %
100 07-04-2020 03:00:00 11.15 C 65.0000 %
Sensor: Nr:Datum:Temp:Feuchte:
G-T/H 101 07-04-2020 04:00:00 11.11667 C 65.0000 %
102 07-04-2020 05:00:00 11.1 C 65.0000 %
103 07-04-2020 06:00:00 11.1 C 65.0000 %
104 07-04-2020 07:00:00 11.01667 C 65.0000 %
105 07-04-2020 08:00:00 11 C 65.0000 %
106 07-04-2020 09:00:00 10.98333 C 65.1667 %
107 07-04-2020 10:00:00 11.26667 C 65.6667 %
108 07-04-2020 11:00:00 12.03333 C 67.0000 %
109 07-04-2020 12:00:00 12.8 C 65.0000 %
110 07-04-2020 13:00:00 13.65 C 62.0000 %
111 07-04-2020 14:00:00 14.41667 C 58.6667 %
112 07-04-2020 15:00:00 15.06667 C 55.5000 %
113 07-04-2020 16:00:00 15.63333 C 52.1667 %
114 07-04-2020 17:00:00 16.3 C 47.0000 %
115 07-04-2020 18:00:00 16.71667 C 44.8333 %
116 07-04-2020 19:00:00 16.5 C 46.1667 %
117 07-04-2020 20:00:00 15.46667 C 51.0000 %
118 07-04-2020 21:00:00 14.95 C 54.1667 %
119 07-04-2020 22:00:00 14.63333 C 56.3333 %
120 07-04-2020 23:00:00 14.38333 C 57.3333 %
121 08-04-2020 00:00:00 14.2 C 58.0000 %
122 08-04-2020 01:00:00 14.01667 C 59.1667 %
123 08-04-2020 02:00:00 13.85 C 60.0000 %
124 08-04-2020 03:00:00 13.68333 C 59.8333 %
125 08-04-2020 04:00:00 13.53333 C 59.0000 %
Sensor: Nr:Datum:Temp:Feuchte:
G-T/H 126 08-04-2020 05:00:00 13.36667 C 59.6667 %
127 08-04-2020 06:00:00 13.18333 C 60.0000 %
128 08-04-2020 07:00:00 13.05 C 60.0000 %
129 08-04-2020 08:00:00 12.95 C 60.5000 %
130 08-04-2020 09:00:00 12.81667 C 61.6667 %
131 08-04-2020 10:00:00 12.73333 C 62.0000 %
132 08-04-2020 11:00:00 12.7 C 62.5000 %
133 08-04-2020 12:00:00 12.7 C 63.0000 %
134 08-04-2020 13:00:00 12.7 C 63.0000 %
135 08-04-2020 14:00:00 12.76667 C 63.0000 %
136 08-04-2020 15:00:00 12.8 C 63.0000 %
137 08-04-2020 16:00:00 12.93333 C 62.6667 %
138 08-04-2020 17:00:00 13.01667 C 62.0000 %
139 08-04-2020 18:00:00 13.11667 C 61.3333 %
140 08-04-2020 19:00:00 13.2 C 61.5000 %
141 08-04-2020 20:00:00 13.2 C 62.0000 %
142 08-04-2020 21:00:00 13.2 C 62.0000 %
143 08-04-2020 22:00:00 13.2 C 62.0000 %
144 08-04-2020 23:00:00 13.2 C 63.0000 %
145 09-04-2020 00:00:00 13.2 C 63.0000 %
146 09-04-2020 01:00:00 13.13333 C 63.0000 %
147 09-04-2020 02:00:00 13.1 C 62.5000 %
148 09-04-2020 03:00:00 13.05 C 62.0000 %
149 09-04-2020 04:00:00 13.01667 C 62.1667 %
150 09-04-2020 05:00:00 12.98333 C 62.1667 %
Sensor: Nr:Datum:Temp:Feuchte:
G-T/H 151 09-04-2020 06:00:00 12.9 C 63.0000 %
152 09-04-2020 07:00:00 12.8 C 63.0000 %
153 09-04-2020 08:00:00 12.76667 C 63.0000 %
154 09-04-2020 09:00:00 12.7 C 63.0000 %
155 09-04-2020 10:00:00 12.68333 C 64.0000 %
156 09-04-2020 11:00:00 12.68333 C 64.1667 %
157 09-04-2020 12:00:00 12.7 C 65.0000 %
158 09-04-2020 13:00:00 12.75 C 65.0000 %
159 09-04-2020 14:00:00 12.83333 C 65.0000 %
160 09-04-2020 15:00:00 12.96667 C 64.3333 %
161 09-04-2020 16:00:00 13.06667 C 64.0000 %
162 09-04-2020 17:00:00 14.25 C 58.3333 %
163 09-04-2020 18:00:00 16.05 C 48.3333 %
164 09-04-2020 19:00:00 16.53333 C 47.0000 %
165 09-04-2020 20:00:00 16.08333 C 49.1667 %
166 09-04-2020 21:00:00 15.51667 C 51.1667 %
167 09-04-2020 22:00:00 15.11667 C 52.1667 %
168 09-04-2020 23:00:00 14.85 C 55.6667 %
169 10-04-2020 00:00:00 14.65 C 57.3333 %
170 10-04-2020 01:00:00 14.48333 C 58.0000 %
171 10-04-2020 02:00:00 14.35 C 58.0000 %
172 10-04-2020 03:00:00 14.18333 C 58.0000 %
173 10-04-2020 04:00:00 14.06667 C 58.0000 %
174 10-04-2020 05:00:00 13.95 C 58.5000 %
175 10-04-2020 06:00:00 13.8 C 59.0000 %
Sensor: Nr:Datum:Temp:Feuchte:
G-T/H 176 10-04-2020 07:00:00 13.66667 C 59.0000 %
177 10-04-2020 08:00:00 13.55 C 59.0000 %
178 10-04-2020 09:00:00 13.41667 C 59.5000 %
179 10-04-2020 10:00:00 13.33333 C 60.3333 %
180 10-04-2020 11:00:00 13.28333 C 61.5000 %
181 10-04-2020 12:00:00 13.21667 C 62.0000 %
182 10-04-2020 13:00:00 13.3 C 62.0000 %
183 10-04-2020 14:00:00 13.36667 C 63.0000 %
184 10-04-2020 15:00:00 13.4 C 63.0000 %
185 10-04-2020 16:00:00 13.48333 C 63.0000 %
186 10-04-2020 17:00:00 13.53333 C 63.0000 %
187 10-04-2020 18:00:00 13.68333 C 62.6667 %
188 10-04-2020 19:00:00 13.8 C 62.0000 %
189 10-04-2020 20:00:00 13.8 C 63.0000 %
190 10-04-2020 21:00:00 13.8 C 63.0000 %
191 10-04-2020 22:00:00 13.8 C 63.0000 %
192 10-04-2020 23:00:00 13.76667 C 63.0000 %
193 11-04-2020 00:00:00 13.73333 C 63.0000 %
194 11-04-2020 01:00:00 13.7 C 63.0000 %
195 11-04-2020 02:00:00 13.66667 C 62.3333 %
196 11-04-2020 03:00:00 13.55 C 61.3333 %
197 11-04-2020 04:00:00 13.46667 C 60.0000 %
198 11-04-2020 05:00:00 13.36667 C 58.0000 %
199 11-04-2020 06:00:00 13.26667 C 58.0000 %
200 11-04-2020 07:00:00 13.16667 C 58.0000 %
Sensor: Nr:Datum:Temp:Feuchte:
G-T/H 201 11-04-2020 08:00:00 13.06667 C 58.0000 %
202 11-04-2020 09:00:00 13.01667 C 58.8333 %
203 11-04-2020 10:00:00 12.93333 C 59.8333 %
204 11-04-2020 11:00:00 12.9 C 61.5000 %
205 11-04-2020 12:00:00 12.96667 C 61.8333 %
206 11-04-2020 13:00:00 13 C 62.0000 %
207 11-04-2020 14:00:00 13.01667 C 61.5000 %
208 11-04-2020 15:00:00 13.1 C 62.0000 %
209 11-04-2020 16:00:00 13.2 C 62.5000 %
210 11-04-2020 17:00:00 13.25 C 63.0000 %
211 11-04-2020 18:00:00 13.38333 C 63.0000 %
212 11-04-2020 19:00:00 13.55 C 63.0000 %
213 11-04-2020 20:00:00 13.5 C 63.0000 %
214 11-04-2020 21:00:00 13.55 C 63.0000 %
215 11-04-2020 22:00:00 13.56667 C 63.0000 %
216 11-04-2020 23:00:00 13.58333 C 63.0000 %
217 12-04-2020 00:00:00 13.58333 C 63.0000 %
218 12-04-2020 01:00:00 13.55 C 63.5000 %
219 12-04-2020 02:00:00 13.5 C 63.0000 %
220 12-04-2020 03:00:00 13.5 C 63.0000 %
221 12-04-2020 04:00:00 13.45 C 63.0000 %
222 12-04-2020 05:00:00 13.4 C 62.0000 %
223 12-04-2020 06:00:00 13.33333 C 62.0000 %
224 12-04-2020 07:00:00 13.25 C 61.0000 %
225 12-04-2020 08:00:00 13.2 C 61.1667 %
Sensor: Nr:Datum:Temp:Feuchte:
G-T/H 226 12-04-2020 09:00:00 13.13333 C 62.0000 %
227 12-04-2020 10:00:00 13.1 C 62.8333 %
228 12-04-2020 11:00:00 13.1 C 63.5000 %
229 12-04-2020 12:00:00 13.13333 C 64.0000 %
230 12-04-2020 13:00:00 13.2 C 64.0000 %
231 12-04-2020 14:00:00 13.26667 C 64.0000 %
232 12-04-2020 15:00:00 13.38333 C 64.0000 %
233 12-04-2020 16:00:00 13.45 C 64.0000 %
234 12-04-2020 17:00:00 13.58333 C 64.0000 %
235 12-04-2020 18:00:00 13.68333 C 64.0000 %
236 12-04-2020 19:00:00 13.8 C 64.0000 %
237 12-04-2020 20:00:00 13.8 C 64.0000 %
238 12-04-2020 21:00:00 13.8 C 64.0000 %
239 12-04-2020 22:00:00 13.8 C 64.0000 %
240 12-04-2020 23:00:00 13.8 C 64.0000 %
241 13-04-2020 00:00:00 13.8 C 63.8333 %
242 13-04-2020 01:00:00 13.8 C 63.0000 %
243 13-04-2020 02:00:00 13.73333 C 62.1667 %
244 13-04-2020 03:00:00 13.68333 C 61.6667 %
245 13-04-2020 04:00:00 13.61667 C 61.0000 %
246 13-04-2020 05:00:00 13.53333 C 61.0000 %
247 13-04-2020 06:00:00 13.46667 C 61.0000 %
248 13-04-2020 07:00:00 13.4 C 61.0000 %
249 13-04-2020 08:00:00 13.3 C 61.0000 %
250 13-04-2020 09:00:00 13.28333 C 62.1667 %
Sensor: Nr:Datum:Temp:Feuchte:
G-T/H 251 13-04-2020 10:00:00 13.2 C 63.0000 %
252 13-04-2020 11:00:00 13.18333 C 62.5000 %
253 13-04-2020 12:00:00 13.1 C 61.1667 %
254 13-04-2020 13:00:00 13.03333 C 60.6667 %
255 13-04-2020 14:00:00 13 C 61.1667 %
256 13-04-2020 15:00:00 12.98333 C 60.8333 %
257 13-04-2020 16:00:00 12.9 C 57.5000 %
258 13-04-2020 17:00:00 12.81667 C 55.8333 %
259 13-04-2020 18:00:00 12.8 C 56.3333 %
260 13-04-2020 19:00:00 12.78333 C 56.3333 %
261 13-04-2020 20:00:00 12.7 C 55.0000 %
262 13-04-2020 21:00:00 12.61667 C 55.0000 %
263 13-04-2020 22:00:00 12.53333 C 55.8333 %
264 13-04-2020 23:00:00 12.46667 C 56.1667 %
265 14-04-2020 00:00:00 12.36667 C 56.8333 %
266 14-04-2020 01:00:00 12.23333 C 57.0000 %
267 14-04-2020 02:00:00 12.13333 C 57.0000 %
268 14-04-2020 03:00:00 11.95 C 57.5000 %
269 14-04-2020 04:00:00 11.83333 C 57.8333 %
270 14-04-2020 05:00:00 11.7 C 57.0000 %
271 14-04-2020 06:00:00 11.53333 C 57.1667 %
272 14-04-2020 07:00:00 11.38333 C 58.0000 %
273 14-04-2020 08:00:00 11.26667 C 58.0000 %
274 14-04-2020 09:00:00 11.18333 C 58.8333 %
275 14-04-2020 10:00:00 11.1 C 59.0000 %
Sensor: Nr:Datum:Temp:Feuchte:
G-T/H 276 14-04-2020 11:00:00 11.1 C 59.0000 %
277 14-04-2020 12:00:00 11 C 59.0000 %
278 14-04-2020 13:00:00 11.05 C 59.0000 %
279 14-04-2020 14:00:00 11.08333 C 59.1667 %
280 14-04-2020 15:00:00 11.13333 C 60.0000 %
281 14-04-2020 16:00:00 11.2 C 60.0000 %
282 14-04-2020 17:00:00 11.21667 C 60.0000 %
283 14-04-2020 18:00:00 11.31667 C 60.0000 %
284 14-04-2020 19:00:00 11.4 C 60.1667 %
285 14-04-2020 20:00:00 11.4 C 59.8333 %
286 14-04-2020 21:00:00 11.4 C 60.0000 %
287 14-04-2020 22:00:00 11.36667 C 60.5000 %
288 14-04-2020 23:00:00 11.3 C 60.0000 %
289 15-04-2020 00:00:00 11.2 C 60.0000 %
290 15-04-2020 01:00:00 11.15 C 60.0000 %
291 15-04-2020 02:00:00 11.08333 C 60.0000 %
292 15-04-2020 03:00:00 11 C 60.0000 %
293 15-04-2020 04:00:00 10.88333 C 60.5000 %
294 15-04-2020 05:00:00 10.71667 C 59.3333 %
295 15-04-2020 06:00:00 10.63333 C 59.8333 %
296 15-04-2020 07:00:00 10.51667 C 60.0000 %
297 15-04-2020 08:00:00 10.46667 C 60.0000 %
298 15-04-2020 09:00:00 10.4 C 60.0000 %
299 15-04-2020 10:00:00 10.36667 C 60.8333 %
300 15-04-2020 11:00:00 10.33333 C 61.0000 %
Sensor: Nr:Datum:Temp:Feuchte:
G-T/H 301 15-04-2020 12:00:00 10.4 C 62.0000 %
302 15-04-2020 13:00:00 10.43333 C 61.8333 %
303 15-04-2020 14:00:00 10.53333 C 62.0000 %
304 15-04-2020 15:00:00 10.7 C 62.5000 %
305 15-04-2020 16:00:00 10.83333 C 63.0000 %
306 15-04-2020 17:00:00 11.46667 C 58.3333 %
307 15-04-2020 18:00:00 13.26667 C 43.8333 %
308 15-04-2020 19:00:00 13.75 C 40.6667 %
309 15-04-2020 20:00:00 13.01667 C 45.1667 %
310 15-04-2020 21:00:00 12.23333 C 47.0000 %
311 15-04-2020 22:00:00 11.66667 C 47.8333 %
312 15-04-2020 23:00:00 11 C 48.3333 %
313 16-04-2020 00:00:00 10.3 C 49.6667 %
314 16-04-2020 01:00:00 9.73333 C 50.1667 %
315 16-04-2020 02:00:00 9.15 C 51.3333 %
316 16-04-2020 03:00:00 8.5 C 52.8333 %
317 16-04-2020 04:00:00 8.03333 C 54.0000 %
318 16-04-2020 05:00:00 7.6 C 55.3333 %
319 16-04-2020 06:00:00 7.15 C 56.1667 %
320 16-04-2020 07:00:00 6.85 C 57.8333 %
321 16-04-2020 08:00:00 6.9 C 59.3333 %
322 16-04-2020 09:00:00 7.4 C 60.5000 %
323 16-04-2020 10:00:00 8.43333 C 61.1667 %
324 16-04-2020 11:00:00 10.15 C 58.3333 %
325 16-04-2020 12:00:00 12.05 C 53.6667 %
Sensor: Nr:Datum:Temp:Feuchte:
G-T/H 326 16-04-2020 13:00:00 13.51667 C 50.0000 %
327 16-04-2020 14:00:00 14.61667 C 44.6667 %
328 16-04-2020 15:00:00 15.65 C 43.6667 %
329 16-04-2020 16:00:00 16.48333 C 42.6667 %
330 16-04-2020 17:00:00 16.06667 C 43.0000 %
331 16-04-2020 18:00:00 14.88333 C 47.3333 %
332 16-04-2020 19:00:00 14.51667 C 50.0000 %
333 16-04-2020 20:00:00 14.3 C 52.0000 %
334 16-04-2020 21:00:00 14.13333 C 53.1667 %
335 16-04-2020 22:00:00 14 C 54.1667 %
336 16-04-2020 23:00:00 13.88333 C 55.5000 %
337 17-04-2020 00:00:00 13.78333 C 56.0000 %
338 17-04-2020 01:00:00 13.66667 C 56.5000 %
339 17-04-2020 02:00:00 13.6 C 57.0000 %
340 17-04-2020 03:00:00 13.46667 C 57.0000 %
341 17-04-2020 04:00:00 13.4 C 57.0000 %
342 17-04-2020 05:00:00 13.28333 C 57.0000 %
343 17-04-2020 06:00:00 13.18333 C 57.0000 %
344 17-04-2020 07:00:00 13.08333 C 57.3333 %
345 17-04-2020 08:00:00 13.01667 C 58.0000 %
346 17-04-2020 09:00:00 12.93333 C 58.8333 %
347 17-04-2020 10:00:00 12.85 C 60.0000 %
348 17-04-2020 11:00:00 12.81667 C 60.3333 %
349 17-04-2020 12:00:00 12.88333 C 61.0000 %
350 17-04-2020 13:00:00 13.15 C 60.8333 %
Sensor: Nr:Datum:Temp:Feuchte:
G-T/H 351 17-04-2020 14:00:00 15.58333 C 56.0000 %
352 17-04-2020 15:00:00 16.75 C 52.3333 %
353 17-04-2020 16:00:00 17.33333 C 49.8333 %
354 17-04-2020 17:00:00 17.86667 C 47.5000 %
355 17-04-2020 18:00:00 18.56667 C 46.3333 %
356 17-04-2020 19:00:00 18.7 C 49.0000 %
357 17-04-2020 20:00:00 17.81667 C 52.5000 %
358 17-04-2020 21:00:00 17.2 C 53.0000 %
359 17-04-2020 22:00:00 16.66667 C 54.0000 %
360 17-04-2020 23:00:00 16.15 C 55.1667 %
361 18-04-2020 00:00:00 15.48333 C 56.0000 %
362 18-04-2020 01:00:00 14.86667 C 55.8333 %
363 18-04-2020 02:00:00 14.28333 C 56.5000 %
364 18-04-2020 03:00:00 13.65 C 58.1667 %
365 18-04-2020 04:00:00 13.1 C 59.0000 %
366 18-04-2020 05:00:00 12.7 C 60.5000 %
367 18-04-2020 06:00:00 12.38333 C 61.3333 %
368 18-04-2020 07:00:00 12.3 C 62.8333 %
369 18-04-2020 08:00:00 12.41667 C 64.6667 %
370 18-04-2020 09:00:00 12.91667 C 65.5000 %
371 18-04-2020 10:00:00 13.56667 C 65.0000 %
372 18-04-2020 11:00:00 14.16667 C 64.8333 %
373 18-04-2020 12:00:00 14.8 C 64.5000 %
374 18-04-2020 13:00:00 15.43333 C 63.0000 %
375 18-04-2020 14:00:00 16.03333 C 61.5000 %
Sensor: Nr:Datum:Temp:Feuchte:
G-T/H 376 18-04-2020 15:00:00 16.5 C 60.0000 %
377 18-04-2020 16:00:00 16.51667 C 61.5000 %
378 18-04-2020 17:00:00 16.4 C 65.5000 %
379 18-04-2020 18:00:00 16 C 67.1667 %
380 18-04-2020 19:00:00 15.83333 C 66.8333 %
381 18-04-2020 20:00:00 15.65 C 65.6667 %
382 18-04-2020 21:00:00 15.53333 C 65.0000 %
383 18-04-2020 22:00:00 15.38333 C 65.0000 %
384 18-04-2020 23:00:00 15.28333 C 65.0000 %
385 19-04-2020 00:00:00 15.15 C 64.6667 %
386 19-04-2020 01:00:00 15.01667 C 64.0000 %
387 19-04-2020 02:00:00 14.95 C 64.5000 %
388 19-04-2020 03:00:00 14.81667 C 65.0000 %
389 19-04-2020 04:00:00 14.7 C 65.0000 %
390 19-04-2020 05:00:00 14.61667 C 65.0000 %
391 19-04-2020 06:00:00 14.5 C 65.0000 %
392 19-04-2020 07:00:00 14.41667 C 65.0000 %
393 19-04-2020 08:00:00 14.35 C 65.0000 %
394 19-04-2020 09:00:00 14.3 C 65.0000 %
395 19-04-2020 10:00:00 14.3 C 65.0000 %
396 19-04-2020 11:00:00 14.21667 C 65.0000 %
397 19-04-2020 12:00:00 14.2 C 65.0000 %
398 19-04-2020 13:00:00 14.2 C 65.1667 %
399 19-04-2020 14:00:00 14.28333 C 66.0000 %
400 19-04-2020 15:00:00 14.3 C 66.0000 %
Sensor: Nr:Datum:Temp:Feuchte:
G-T/H 401 19-04-2020 16:00:00 14.3 C 66.0000 %
402 19-04-2020 17:00:00 14.4 C 65.0000 %
403 19-04-2020 18:00:00 14.4 C 65.0000 %
404 19-04-2020 19:00:00 14.4 C 65.0000 %
405 19-04-2020 20:00:00 14.38333 C 65.0000 %
406 19-04-2020 21:00:00 14.38333 C 64.8333 %
407 19-04-2020 22:00:00 14.23333 C 61.5000 %
408 19-04-2020 23:00:00 14.18333 C 58.3333 %
409 20-04-2020 00:00:00 14.11667 C 59.0000 %
410 20-04-2020 01:00:00 14.08333 C 59.0000 %
411 20-04-2020 02:00:00 14 C 58.6667 %
412 20-04-2020 03:00:00 13.9 C 59.0000 %
413 20-04-2020 04:00:00 13.8 C 58.0000 %
414 20-04-2020 05:00:00 13.71667 C 58.8333 %
415 20-04-2020 06:00:00 13.58333 C 59.0000 %
416 20-04-2020 07:00:00 13.46667 C 59.0000 %
417 20-04-2020 08:00:00 13.38333 C 59.0000 %
418 20-04-2020 09:00:00 13.28333 C 59.0000 %
419 20-04-2020 10:00:00 13.2 C 59.0000 %
420 20-04-2020 11:00:00 13.1 C 59.5000 %
421 20-04-2020 12:00:00 13.1 C 61.0000 %
422 20-04-2020 13:00:00 13.15 C 61.3333 %
423 20-04-2020 14:00:00 13.21667 C 59.6667 %
424 20-04-2020 15:00:00 13.3 C 59.5000 %
425 20-04-2020 16:00:00 13.38333 C 60.0000 %
Sensor: Nr:Datum:Temp:Feuchte:
G-T/H 426 20-04-2020 17:00:00 13.45 C 60.1667 %
427 20-04-2020 18:00:00 13.53333 C 61.0000 %
428 20-04-2020 19:00:00 13.65 C 61.0000 %
429 20-04-2020 20:00:00 13.66667 C 60.3333 %
430 20-04-2020 21:00:00 13.6 C 59.8333 %
431 20-04-2020 22:00:00 13.6 C 60.0000 %
432 20-04-2020 23:00:00 13.6 C 59.6667 %
433 21-04-2020 00:00:00 13.53333 C 58.8333 %
434 21-04-2020 01:00:00 13.51667 C 58.0000 %
435 21-04-2020 02:00:00 13.48333 C 58.0000 %
436 21-04-2020 03:00:00 13.4 C 58.0000 %
437 21-04-2020 04:00:00 13.36667 C 58.0000 %
438 21-04-2020 05:00:00 13.26667 C 58.0000 %
439 21-04-2020 06:00:00 13.2 C 58.0000 %
440 21-04-2020 07:00:00 13.1 C 58.0000 %
441 21-04-2020 08:00:00 13.03333 C 58.0000 %
442 21-04-2020 09:00:00 12.95 C 58.5000 %
443 21-04-2020 10:00:00 12.86667 C 59.0000 %
444 21-04-2020 11:00:00 12.8 C 59.0000 %
445 21-04-2020 12:00:00 12.86667 C 59.8333 %
446 21-04-2020 13:00:00 12.93333 C 60.6667 %
447 21-04-2020 14:00:00 13.05 C 59.1667 %
448 21-04-2020 15:00:00 13.15 C 59.0000 %
449 21-04-2020 16:00:00 13.26667 C 59.0000 %
450 21-04-2020 17:00:00 13.5 C 56.5000 %
Sensor: Nr:Datum:Temp:Feuchte:
G-T/H 451 21-04-2020 18:00:00 13.53333 C 58.3333 %
452 21-04-2020 19:00:00 13.6 C 59.3333 %
453 21-04-2020 20:00:00 13.63333 C 60.0000 %
454 21-04-2020 21:00:00 13.6 C 60.0000 %
455 21-04-2020 22:00:00 13.63333 C 60.0000 %
456 21-04-2020 23:00:00 13.63333 C 60.0000 %
457 22-04-2020 00:00:00 13.61667 C 60.0000 %
458 22-04-2020 01:00:00 13.6 C 59.6667 %
459 22-04-2020 02:00:00 13.55 C 59.0000 %
460 22-04-2020 03:00:00 13.51667 C 58.6667 %
461 22-04-2020 04:00:00 13.46667 C 58.0000 %
462 22-04-2020 05:00:00 13.4 C 58.0000 %
463 22-04-2020 06:00:00 13.3 C 58.0000 %
464 22-04-2020 07:00:00 13.21667 C 58.0000 %
465 22-04-2020 08:00:00 13.15 C 58.0000 %
466 22-04-2020 09:00:00 13.1 C 58.0000 %
467 22-04-2020 10:00:00 13.01667 C 58.3333 %
468 22-04-2020 11:00:00 13 C 59.3333 %
469 22-04-2020 12:00:00 13.03333 C 60.0000 %
470 22-04-2020 13:00:00 13.1 C 60.0000 %
471 22-04-2020 14:00:00 13.21667 C 60.0000 %
472 22-04-2020 15:00:00 13.31667 C 60.1667 %
473 22-04-2020 16:00:00 13.45 C 61.0000 %
474 22-04-2020 17:00:00 13.6 C 61.0000 %
475 22-04-2020 18:00:00 13.75 C 59.5000 %
Sensor: Nr:Datum:Temp:Feuchte:
G-T/H 476 22-04-2020 19:00:00 13.8 C 60.3333 %
477 22-04-2020 20:00:00 13.86667 C 61.0000 %
478 22-04-2020 21:00:00 13.83333 C 60.0000 %
479 22-04-2020 22:00:00 13.83333 C 60.0000 %
480 22-04-2020 23:00:00 13.81667 C 60.0000 %
481 23-04-2020 00:00:00 13.85 C 60.0000 %
482 23-04-2020 01:00:00 13.81667 C 60.0000 %
483 23-04-2020 02:00:00 13.8 C 60.0000 %
484 23-04-2020 03:00:00 13.8 C 59.1667 %
485 23-04-2020 04:00:00 13.71667 C 58.6667 %
486 23-04-2020 05:00:00 13.66667 C 58.0000 %
487 23-04-2020 06:00:00 13.56667 C 58.0000 %
488 23-04-2020 07:00:00 13.5 C 58.0000 %
489 23-04-2020 08:00:00 13.38333 C 58.0000 %
490 23-04-2020 09:00:00 13.31667 C 58.1667 %
491 23-04-2020 10:00:00 13.26667 C 59.0000 %
492 23-04-2020 11:00:00 13.21667 C 59.6667 %
493 23-04-2020 12:00:00 13.3 C 61.0000 %
494 23-04-2020 13:00:00 13.36667 C 61.0000 %
495 23-04-2020 14:00:00 13.45 C 60.8333 %
496 23-04-2020 15:00:00 13.53333 C 60.3333 %
497 23-04-2020 16:00:00 13.68333 C 61.0000 %
498 23-04-2020 17:00:00 13.8 C 61.0000 %
499 23-04-2020 18:00:00 13.96667 C 60.3333 %
500 23-04-2020 19:00:00 14.06667 C 60.0000 %
Sensor: Nr:Datum:Temp:Feuchte:
G-T/H 501 23-04-2020 20:00:00 14.08333 C 60.0000 %
502 23-04-2020 21:00:00 14.1 C 60.1667 %
503 23-04-2020 22:00:00 14.03333 C 59.5000 %
504 23-04-2020 23:00:00 14.06667 C 59.0000 %
505 24-04-2020 00:00:00 14.01667 C 59.0000 %
506 24-04-2020 01:00:00 14 C 58.8333 %
507 24-04-2020 02:00:00 13.93333 C 58.6667 %
508 24-04-2020 03:00:00 13.88333 C 59.0000 %
509 24-04-2020 04:00:00 13.8 C 58.8333 %
510 24-04-2020 05:00:00 13.73333 C 58.0000 %
511 24-04-2020 06:00:00 13.65 C 58.0000 %
512 24-04-2020 07:00:00 13.55 C 58.8333 %
513 24-04-2020 08:00:00 13.5 C 59.0000 %
514 24-04-2020 09:00:00 13.41667 C 59.0000 %
515 24-04-2020 10:00:00 13.4 C 60.3333 %
516 24-04-2020 11:00:00 13.46667 C 61.3333 %
517 24-04-2020 12:00:00 14.4 C 57.0000 %
518 24-04-2020 13:00:00 15.26667 C 49.0000 %
519 24-04-2020 14:00:00 16 C 45.5000 %
520 24-04-2020 15:00:00 16.51667 C 44.5000 %
521 24-04-2020 16:00:00 16.83333 C 40.0000 %
522 24-04-2020 17:00:00 17.11667 C 36.0000 %
523 24-04-2020 18:00:00 17.2 C 36.8333 %
524 24-04-2020 19:00:00 16.91667 C 40.6667 %
525 24-04-2020 20:00:00 16.41667 C 44.5000 %
Sensor: Nr:Datum:Temp:Feuchte:
G-T/H 526 24-04-2020 21:00:00 16.15 C 47.1667 %
527 24-04-2020 22:00:00 15.91667 C 50.1667 %
528 24-04-2020 23:00:00 15.75 C 52.3333 %
529 25-04-2020 00:00:00 15.6 C 53.3333 %
530 25-04-2020 01:00:00 15.43333 C 54.0000 %
531 25-04-2020 02:00:00 15.3 C 53.5000 %
532 25-04-2020 03:00:00 15.16667 C 52.1667 %
533 25-04-2020 04:00:00 15.03333 C 51.6667 %
534 25-04-2020 05:00:00 14.88333 C 52.1667 %
535 25-04-2020 06:00:00 14.73333 C 53.0000 %
536 25-04-2020 07:00:00 14.6 C 53.0000 %
537 25-04-2020 08:00:00 14.48333 C 53.0000 %
538 25-04-2020 09:00:00 14.4 C 53.0000 %
539 25-04-2020 10:00:00 14.3 C 53.0000 %
540 25-04-2020 11:00:00 14.23333 C 53.0000 %
541 25-04-2020 12:00:00 14.2 C 53.0000 %
542 25-04-2020 13:00:00 14.15 C 49.6667 %
543 25-04-2020 14:00:00 14.3 C 46.8333 %
544 25-04-2020 15:00:00 14.53333 C 46.8333 %
545 25-04-2020 16:00:00 14.76667 C 45.1667 %
546 25-04-2020 17:00:00 15.08333 C 42.1667 %
547 25-04-2020 18:00:00 15.38333 C 40.8333 %
548 25-04-2020 19:00:00 15.5 C 40.0000 %
549 25-04-2020 20:00:00 15.08333 C 41.6667 %
550 25-04-2020 21:00:00 14.23333 C 42.5000 %
Sensor: Nr:Datum:Temp:Feuchte:
G-T/H 551 25-04-2020 22:00:00 13.53333 C 43.5000 %
552 25-04-2020 23:00:00 12.83333 C 45.8333 %
553 26-04-2020 00:00:00 11.98333 C 48.1667 %
554 26-04-2020 01:00:00 11.1 C 50.3333 %
555 26-04-2020 02:00:00 10.43333 C 52.3333 %
556 26-04-2020 03:00:00 9.76667 C 54.0000 %
557 26-04-2020 04:00:00 9.16667 C 55.1667 %
558 26-04-2020 05:00:00 8.53333 C 56.3333 %
559 26-04-2020 06:00:00 8.03333 C 57.3333 %
560 26-04-2020 07:00:00 7.8 C 59.0000 %
561 26-04-2020 08:00:00 7.91667 C 60.6667 %
562 26-04-2020 09:00:00 8.53333 C 63.0000 %
563 26-04-2020 10:00:00 9.56667 C 63.5000 %
564 26-04-2020 11:00:00 10.66667 C 60.8333 %
565 26-04-2020 12:00:00 11.78333 C 54.5000 %
566 26-04-2020 13:00:00 12.63333 C 48.5000 %
567 26-04-2020 14:00:00 13.43333 C 45.0000 %
568 26-04-2020 15:00:00 13.16667 C 46.8333 %
569 26-04-2020 16:00:00 12.9 C 51.5000 %
570 26-04-2020 17:00:00 12.96667 C 53.0000 %
571 26-04-2020 18:00:00 13.05 C 54.5000 %
572 26-04-2020 19:00:00 13.15 C 55.5000 %
573 26-04-2020 20:00:00 13.2 C 56.0000 %
574 26-04-2020 21:00:00 13.2 C 56.0000 %
575 26-04-2020 22:00:00 13.2 C 55.0000 %
Sensor: Nr:Datum:Temp:Feuchte:
G-T/H 576 26-04-2020 23:00:00 13.23333 C 55.8333 %
577 27-04-2020 00:00:00 13.21667 C 55.0000 %
578 27-04-2020 01:00:00 13.2 C 55.0000 %
579 27-04-2020 02:00:00 13.2 C 55.0000 %
580 27-04-2020 03:00:00 13.1 C 55.0000 %
581 27-04-2020 04:00:00 13.1 C 55.0000 %
582 27-04-2020 05:00:00 13 C 55.0000 %
583 27-04-2020 06:00:00 12.91667 C 55.8333 %
584 27-04-2020 07:00:00 12.8 C 56.0000 %
585 27-04-2020 08:00:00 12.76667 C 56.0000 %
586 27-04-2020 09:00:00 12.68333 C 56.1667 %
587 27-04-2020 10:00:00 12.6 C 57.0000 %
588 27-04-2020 11:00:00 12.6 C 57.1667 %
589 27-04-2020 12:00:00 12.66667 C 58.0000 %
590 27-04-2020 13:00:00 12.76667 C 58.0000 %
591 27-04-2020 14:00:00 12.91667 C 57.8333 %
592 27-04-2020 15:00:00 13.06667 C 58.1667 %
593 27-04-2020 16:00:00 13.23333 C 59.0000 %
594 27-04-2020 17:00:00 13.36667 C 59.3333 %
595 27-04-2020 18:00:00 13.48333 C 60.0000 %
596 27-04-2020 19:00:00 13.63333 C 60.0000 %
597 27-04-2020 20:00:00 13.7 C 60.0000 %
598 27-04-2020 21:00:00 13.75 C 60.0000 %
599 27-04-2020 22:00:00 13.8 C 60.0000 %
600 27-04-2020 23:00:00 13.8 C 60.0000 %
Sensor: Nr:Datum:Temp:Feuchte:
G-T/H 601 28-04-2020 00:00:00 13.8 C 60.0000 %
602 28-04-2020 01:00:00 13.8 C 60.0000 %
603 28-04-2020 02:00:00 13.78333 C 60.0000 %
604 28-04-2020 03:00:00 13.76667 C 60.0000 %
605 28-04-2020 04:00:00 13.7 C 60.0000 %
606 28-04-2020 05:00:00 13.65 C 60.0000 %
607 28-04-2020 06:00:00 13.6 C 60.0000 %
608 28-04-2020 07:00:00 13.51667 C 60.0000 %
609 28-04-2020 08:00:00 13.5 C 60.0000 %
610 28-04-2020 09:00:00 13.5 C 60.8333 %
611 28-04-2020 10:00:00 13.48333 C 61.0000 %
612 28-04-2020 11:00:00 13.5 C 61.0000 %
613 28-04-2020 12:00:00 13.5 C 62.0000 %
614 28-04-2020 13:00:00 13.48333 C 62.0000 %
615 28-04-2020 14:00:00 13.53333 C 62.8333 %
616 28-04-2020 15:00:00 13.6 C 63.5000 %
617 28-04-2020 16:00:00 13.65 C 64.0000 %
618 28-04-2020 17:00:00 13.7 C 64.0000 %
619 28-04-2020 18:00:00 13.78333 C 64.6667 %
620 28-04-2020 19:00:00 13.81667 C 65.0000 %
621 28-04-2020 20:00:00 13.83333 C 65.0000 %
622 28-04-2020 21:00:00 13.83333 C 64.5000 %
623 28-04-2020 22:00:00 13.81667 C 64.0000 %
624 28-04-2020 23:00:00 13.81667 C 64.0000 %
625 29-04-2020 00:00:00 13.8 C 64.0000 %
Sensor: Nr:Datum:Temp:Feuchte:
G-T/H 626 29-04-2020 01:00:00 13.8 C 64.0000 %
627 29-04-2020 02:00:00 13.8 C 64.0000 %
628 29-04-2020 03:00:00 13.75 C 64.0000 %
629 29-04-2020 04:00:00 13.7 C 64.0000 %
630 29-04-2020 05:00:00 13.7 C 64.0000 %
631 29-04-2020 06:00:00 13.68333 C 64.0000 %
632 29-04-2020 07:00:00 13.6 C 64.0000 %
633 29-04-2020 08:00:00 13.6 C 64.0000 %
634 29-04-2020 09:00:00 13.6 C 64.0000 %
635 29-04-2020 10:00:00 13.6 C 64.3333 %
636 29-04-2020 11:00:00 13.6 C 65.0000 %
637 29-04-2020 12:00:00 13.7 C 65.0000 %
638 29-04-2020 13:00:00 13.71667 C 65.0000 %
639 29-04-2020 14:00:00 13.8 C 65.0000 %
640 29-04-2020 15:00:00 13.88333 C 65.0000 %
641 29-04-2020 16:00:00 13.98333 C 64.8333 %
642 29-04-2020 17:00:00 14.06667 C 65.0000 %
643 29-04-2020 18:00:00 14.11667 C 65.0000 %
644 29-04-2020 19:00:00 14.21667 C 65.0000 %
645 29-04-2020 20:00:00 14.21667 C 65.0000 %
646 29-04-2020 21:00:00 14.2 C 65.0000 %
647 29-04-2020 22:00:00 14.2 C 65.0000 %
648 29-04-2020 23:00:00 14.21667 C 65.0000 %
649 30-04-2020 00:00:00 14.2 C 65.0000 %
650 30-04-2020 01:00:00 14.21667 C 65.0000 %
Sensor: Nr:Datum:Temp:Feuchte:
G-T/H 651 30-04-2020 02:00:00 14.2 C 65.0000 %
652 30-04-2020 03:00:00 14.18333 C 65.0000 %
653 30-04-2020 04:00:00 14.13333 C 65.0000 %
654 30-04-2020 05:00:00 14.1 C 65.0000 %
655 30-04-2020 06:00:00 14.06667 C 65.0000 %
656 30-04-2020 07:00:00 14 C 65.0000 %
657 30-04-2020 08:00:00 14 C 65.0000 %
658 30-04-2020 09:00:00 13.98333 C 65.1667 %
659 30-04-2020 10:00:00 13.96667 C 65.3333 %
660 30-04-2020 11:00:00 13.96667 C 65.3333 %
661 30-04-2020 12:00:00 13.98333 C 65.3333 %
662 30-04-2020 13:00:00 13.98333 C 65.1667 %
663 30-04-2020 14:00:00 14.01667 C 65.0000 %
664 30-04-2020 15:00:00 14.08333 C 65.0000 %
665 30-04-2020 16:00:00 14.1 C 65.0000 %
666 30-04-2020 17:00:00 14.18333 C 65.0000 %
667 30-04-2020 18:00:00 14.15 C 65.0000 %
668 30-04-2020 19:00:00 14.16667 C 65.0000 %
669 30-04-2020 20:00:00 14.16667 C 65.0000 %
670 30-04-2020 21:00:00 14.11667 C 65.0000 %
671 30-04-2020 22:00:00 14.1 C 65.0000 %
672 30-04-2020 23:00:00 14.03333 C 65.0000 %
673 01-05-2020 00:00:00 14 C 65.0000 %
674 01-05-2020 01:00:00 13.91667 C 65.0000 %
675 01-05-2020 02:00:00 13.81667 C 65.0000 %
Sensor: Nr:Datum:Temp:Feuchte:
G-T/H 676 01-05-2020 03:00:00 13.73333 C 64.8333 %
677 01-05-2020 04:00:00 13.66667 C 64.0000 %
678 01-05-2020 05:00:00 13.53333 C 64.0000 %
679 01-05-2020 06:00:00 13.46667 C 64.0000 %
680 01-05-2020 07:00:00 13.36667 C 64.0000 %
681 01-05-2020 08:00:00 13.26667 C 64.0000 %
682 01-05-2020 09:00:00 13.2 C 64.5000 %
683 01-05-2020 10:00:00 13.18333 C 65.0000 %
684 01-05-2020 11:00:00 13.16667 C 65.0000 %
685 01-05-2020 12:00:00 13.18333 C 65.0000 %
686 01-05-2020 13:00:00 13.18333 C 65.0000 %
687 01-05-2020 14:00:00 13.23333 C 65.3333 %
688 01-05-2020 15:00:00 13.26667 C 66.0000 %
689 01-05-2020 16:00:00 13.31667 C 66.0000 %
690 01-05-2020 17:00:00 13.4 C 66.0000 %
691 01-05-2020 18:00:00 13.4 C 66.1667 %
692 01-05-2020 19:00:00 13.4 C 66.5000 %
693 01-05-2020 20:00:00 13.4 C 66.0000 %
694 01-05-2020 21:00:00 13.4 C 66.0000 %
695 01-05-2020 22:00:00 13.36667 C 65.3333 %
696 01-05-2020 23:00:00 13.3 C 65.0000 %

Maximal/Minimal-Werte vom 03.04.2020 - 01.05.2020

Sensor Min Max Avg
Temp
(Aussen-T/F)
-1.8 °C
04-04-2020  06:31:17
33.2 °C
12-04-2020  16:11:17
12.71 °C
Feuchte
(Aussen-T/F)
20 %
03-04-2020  14:01:18
49 %
05-04-2020  08:11:17
29.46 %
Temp
(G-T/H)
4.2 °C
04-04-2020  07:31:18
18.8 °C
17-04-2020  19:12:17
12.77 °C
Feuchte
(G-T/H)
35 %
24-04-2020  17:42:18
68 %
03-04-2020  10:01:18
59.53 %

Die Daten stammen von einer Davis Vantage Pro 2 Wetter-Station und werden unter Linux mit der Software wview2wettercgi und aufbereitet. Alle Angaben erfolgen ohne Gewähr für ihre Vollständigkeit oder Richtigkeit.
Kontakt: Rainer Krienke krienke@uni-koblenz.de . Meine Webseiten an der Uni Koblenz oder privat.
Version: $Revision: 0.78 $